<?xml version="1.0" encoding="UTF-8" standalone="no" ?>
<gpx xmlns="http://www.topografix.com/GPX/1/1" xmlns:xsi="http://www.w3.org/2001/XMLSchema-instance" xsi:schemaLocation="http://www.topografix.com/GPX/1/1 http://www.topografix.com/GPX/1/1/gpx.xsd" version="1.1" creator="VisuGPX - https://www.visugpx.com">
  <metadata>
    <name>Le Teilhet</name>
    <desc><![CDATA[Au départ de Campan, en nocturne avec les Amis du parc national des Pyrénées. ]]></desc>
  </metadata>
  <trk>
    <name><![CDATA[Move]]></name>
    <trkseg>
      <trkpt lat="43.0182" lon="0.17832">
        <ele>662.79998779297</ele>
        <time>2019-02-15T19:23:26.000Z</time>
      </trkpt>
      <trkpt lat="43.01827" lon="0.17834">
        <ele>667</ele>
        <time>2019-02-15T19:24:08.000Z</time>
      </trkpt>
      <trkpt lat="43.01825" lon="0.17836">
        <ele>667</ele>
        <time>2019-02-15T19:24:37.000Z</time>
      </trkpt>
      <trkpt lat="43.01829" lon="0.17832">
        <ele>666</ele>
        <time>2019-02-15T19:25:05.000Z</time>
      </trkpt>
      <trkpt lat="43.01831" lon="0.17833">
        <ele>666</ele>
        <time>2019-02-15T19:25:19.000Z</time>
      </trkpt>
      <trkpt lat="43.0183" lon="0.17831">
        <ele>666</ele>
        <time>2019-02-15T19:25:23.000Z</time>
      </trkpt>
      <trkpt lat="43.01828" lon="0.17829">
        <ele>666</ele>
        <time>2019-02-15T19:25:37.000Z</time>
      </trkpt>
      <trkpt lat="43.01825" lon="0.17828">
        <ele>666</ele>
        <time>2019-02-15T19:25:39.000Z</time>
      </trkpt>
      <trkpt lat="43.0182" lon="0.17838">
        <ele>665</ele>
        <time>2019-02-15T19:27:22.990Z</time>
      </trkpt>
      <trkpt lat="43.01815" lon="0.17853">
        <ele>665</ele>
        <time>2019-02-15T19:27:32.000Z</time>
      </trkpt>
      <trkpt lat="43.01809" lon="0.17843">
        <ele>664.02942117647</ele>
        <time>2019-02-15T19:28:10.990Z</time>
      </trkpt>
      <trkpt lat="43.01819" lon="0.17843">
        <ele>665</ele>
        <time>2019-02-15T19:28:15.000Z</time>
      </trkpt>
      <trkpt lat="43.01828" lon="0.17845">
        <ele>664</ele>
        <time>2019-02-15T19:28:23.990Z</time>
      </trkpt>
      <trkpt lat="43.01822" lon="0.17834">
        <ele>664</ele>
        <time>2019-02-15T19:28:47.990Z</time>
      </trkpt>
      <trkpt lat="43.01826" lon="0.17823">
        <ele>664</ele>
        <time>2019-02-15T19:29:02.990Z</time>
      </trkpt>
      <trkpt lat="43.01828" lon="0.17811">
        <ele>663</ele>
        <time>2019-02-15T19:29:34.990Z</time>
      </trkpt>
      <trkpt lat="43.01834" lon="0.178">
        <ele>661</ele>
        <time>2019-02-15T19:31:06.000Z</time>
      </trkpt>
      <trkpt lat="43.01843" lon="0.17796">
        <ele>661</ele>
        <time>2019-02-15T19:31:14.990Z</time>
      </trkpt>
      <trkpt lat="43.01852" lon="0.1779">
        <ele>661</ele>
        <time>2019-02-15T19:31:24.000Z</time>
      </trkpt>
      <trkpt lat="43.01861" lon="0.17788">
        <ele>662</ele>
        <time>2019-02-15T19:31:33.990Z</time>
      </trkpt>
      <trkpt lat="43.01871" lon="0.17791">
        <ele>662</ele>
        <time>2019-02-15T19:31:43.000Z</time>
      </trkpt>
      <trkpt lat="43.01877" lon="0.17802">
        <ele>661</ele>
        <time>2019-02-15T19:31:51.000Z</time>
      </trkpt>
      <trkpt lat="43.01886" lon="0.17807">
        <ele>661</ele>
        <time>2019-02-15T19:31:58.990Z</time>
      </trkpt>
      <trkpt lat="43.01895" lon="0.17811">
        <ele>661</ele>
        <time>2019-02-15T19:32:06.990Z</time>
      </trkpt>
      <trkpt lat="43.01905" lon="0.17813">
        <ele>660</ele>
        <time>2019-02-15T19:32:14.990Z</time>
      </trkpt>
      <trkpt lat="43.01914" lon="0.17816">
        <ele>658</ele>
        <time>2019-02-15T19:32:24.000Z</time>
      </trkpt>
      <trkpt lat="43.01924" lon="0.1782">
        <ele>658</ele>
        <time>2019-02-15T19:32:30.990Z</time>
      </trkpt>
      <trkpt lat="43.01933" lon="0.17823">
        <ele>656</ele>
        <time>2019-02-15T19:32:39.030Z</time>
      </trkpt>
      <trkpt lat="43.0194" lon="0.17831">
        <ele>655</ele>
        <time>2019-02-15T19:32:46.990Z</time>
      </trkpt>
      <trkpt lat="43.01949" lon="0.17839">
        <ele>654</ele>
        <time>2019-02-15T19:32:56.990Z</time>
      </trkpt>
      <trkpt lat="43.01956" lon="0.1785">
        <ele>654</ele>
        <time>2019-02-15T19:33:04.990Z</time>
      </trkpt>
      <trkpt lat="43.01965" lon="0.17851">
        <ele>654</ele>
        <time>2019-02-15T19:33:13.990Z</time>
      </trkpt>
      <trkpt lat="43.01975" lon="0.17847">
        <ele>654</ele>
        <time>2019-02-15T19:33:21.000Z</time>
      </trkpt>
      <trkpt lat="43.01982" lon="0.17838">
        <ele>656</ele>
        <time>2019-02-15T19:33:29.990Z</time>
      </trkpt>
      <trkpt lat="43.01992" lon="0.17834">
        <ele>658</ele>
        <time>2019-02-15T19:33:40.990Z</time>
      </trkpt>
      <trkpt lat="43.02001" lon="0.1783">
        <ele>661</ele>
        <time>2019-02-15T19:33:51.990Z</time>
      </trkpt>
      <trkpt lat="43.0201" lon="0.17827">
        <ele>661</ele>
        <time>2019-02-15T19:34:01.990Z</time>
      </trkpt>
      <trkpt lat="43.02019" lon="0.17822">
        <ele>663</ele>
        <time>2019-02-15T19:34:12.000Z</time>
      </trkpt>
      <trkpt lat="43.02027" lon="0.17818">
        <ele>664</ele>
        <time>2019-02-15T19:34:22.990Z</time>
      </trkpt>
      <trkpt lat="43.02035" lon="0.1781">
        <ele>665.31131961552</ele>
        <time>2019-02-15T19:34:32.000Z</time>
      </trkpt>
      <trkpt lat="43.02042" lon="0.17802">
        <ele>667</ele>
        <time>2019-02-15T19:34:42.100Z</time>
      </trkpt>
      <trkpt lat="43.02051" lon="0.17796">
        <ele>669</ele>
        <time>2019-02-15T19:34:51.990Z</time>
      </trkpt>
      <trkpt lat="43.02059" lon="0.17789">
        <ele>670</ele>
        <time>2019-02-15T19:35:01.990Z</time>
      </trkpt>
      <trkpt lat="43.02066" lon="0.17781">
        <ele>671</ele>
        <time>2019-02-15T19:35:09.990Z</time>
      </trkpt>
      <trkpt lat="43.02072" lon="0.17771">
        <ele>673</ele>
        <time>2019-02-15T19:35:19.990Z</time>
      </trkpt>
      <trkpt lat="43.02077" lon="0.1776">
        <ele>676</ele>
        <time>2019-02-15T19:35:31.000Z</time>
      </trkpt>
      <trkpt lat="43.02082" lon="0.1775">
        <ele>678</ele>
        <time>2019-02-15T19:35:41.000Z</time>
      </trkpt>
      <trkpt lat="43.02089" lon="0.17741">
        <ele>679</ele>
        <time>2019-02-15T19:35:52.990Z</time>
      </trkpt>
      <trkpt lat="43.02099" lon="0.17735">
        <ele>680</ele>
        <time>2019-02-15T19:36:02.990Z</time>
      </trkpt>
      <trkpt lat="43.02107" lon="0.17728">
        <ele>681</ele>
        <time>2019-02-15T19:36:13.990Z</time>
      </trkpt>
      <trkpt lat="43.02116" lon="0.17723">
        <ele>681</ele>
        <time>2019-02-15T19:36:24.000Z</time>
      </trkpt>
      <trkpt lat="43.02126" lon="0.17721">
        <ele>682</ele>
        <time>2019-02-15T19:36:29.990Z</time>
      </trkpt>
      <trkpt lat="43.02135" lon="0.17719">
        <ele>682</ele>
        <time>2019-02-15T19:36:38.000Z</time>
      </trkpt>
      <trkpt lat="43.02144" lon="0.17721">
        <ele>682.68</ele>
        <time>2019-02-15T19:36:45.990Z</time>
      </trkpt>
      <trkpt lat="43.02153" lon="0.17723">
        <ele>683</ele>
        <time>2019-02-15T19:36:54.990Z</time>
      </trkpt>
      <trkpt lat="43.02162" lon="0.17725">
        <ele>683.32989799554</ele>
        <time>2019-02-15T19:37:05.020Z</time>
      </trkpt>
      <trkpt lat="43.02171" lon="0.17724">
        <ele>684</ele>
        <time>2019-02-15T19:37:13.990Z</time>
      </trkpt>
      <trkpt lat="43.0218" lon="0.17721">
        <ele>685</ele>
        <time>2019-02-15T19:37:23.000Z</time>
      </trkpt>
      <trkpt lat="43.0219" lon="0.1772">
        <ele>685</ele>
        <time>2019-02-15T19:37:29.990Z</time>
      </trkpt>
      <trkpt lat="43.02199" lon="0.17717">
        <ele>685</ele>
        <time>2019-02-15T19:37:38.990Z</time>
      </trkpt>
      <trkpt lat="43.02208" lon="0.17715">
        <ele>686</ele>
        <time>2019-02-15T19:37:49.990Z</time>
      </trkpt>
      <trkpt lat="43.02218" lon="0.17715">
        <ele>686</ele>
        <time>2019-02-15T19:37:56.990Z</time>
      </trkpt>
      <trkpt lat="43.02227" lon="0.17713">
        <ele>688</ele>
        <time>2019-02-15T19:38:06.990Z</time>
      </trkpt>
      <trkpt lat="43.02236" lon="0.1771">
        <ele>688</ele>
        <time>2019-02-15T19:38:18.990Z</time>
      </trkpt>
      <trkpt lat="43.02245" lon="0.17708">
        <ele>691</ele>
        <time>2019-02-15T19:38:31.990Z</time>
      </trkpt>
      <trkpt lat="43.02254" lon="0.17705">
        <ele>693</ele>
        <time>2019-02-15T19:38:43.000Z</time>
      </trkpt>
      <trkpt lat="43.02263" lon="0.17704">
        <ele>694</ele>
        <time>2019-02-15T19:38:50.990Z</time>
      </trkpt>
      <trkpt lat="43.02272" lon="0.17705">
        <ele>695.42709333333</ele>
        <time>2019-02-15T19:38:59.100Z</time>
      </trkpt>
      <trkpt lat="43.02282" lon="0.17704">
        <ele>697</ele>
        <time>2019-02-15T19:39:08.990Z</time>
      </trkpt>
      <trkpt lat="43.02291" lon="0.17702">
        <ele>698</ele>
        <time>2019-02-15T19:39:22.000Z</time>
      </trkpt>
      <trkpt lat="43.023" lon="0.17701">
        <ele>700</ele>
        <time>2019-02-15T19:39:32.990Z</time>
      </trkpt>
      <trkpt lat="43.0231" lon="0.17699">
        <ele>701</ele>
        <time>2019-02-15T19:39:43.000Z</time>
      </trkpt>
      <trkpt lat="43.02319" lon="0.177">
        <ele>703.33333751631</ele>
        <time>2019-02-15T19:39:51.990Z</time>
      </trkpt>
      <trkpt lat="43.02328" lon="0.17699">
        <ele>704.02858031012</ele>
        <time>2019-02-15T19:40:01.990Z</time>
      </trkpt>
      <trkpt lat="43.02337" lon="0.17695">
        <ele>706</ele>
        <time>2019-02-15T19:40:11.990Z</time>
      </trkpt>
      <trkpt lat="43.02346" lon="0.17692">
        <ele>706</ele>
        <time>2019-02-15T19:40:21.990Z</time>
      </trkpt>
      <trkpt lat="43.02356" lon="0.17695">
        <ele>709</ele>
        <time>2019-02-15T19:40:34.970Z</time>
      </trkpt>
      <trkpt lat="43.02367" lon="0.17698">
        <ele>711</ele>
        <time>2019-02-15T19:40:48.990Z</time>
      </trkpt>
      <trkpt lat="43.02378" lon="0.17698">
        <ele>711</ele>
        <time>2019-02-15T19:40:59.000Z</time>
      </trkpt>
      <trkpt lat="43.02387" lon="0.177">
        <ele>713</ele>
        <time>2019-02-15T19:41:10.000Z</time>
      </trkpt>
      <trkpt lat="43.02397" lon="0.177">
        <ele>715</ele>
        <time>2019-02-15T19:41:17.000Z</time>
      </trkpt>
      <trkpt lat="43.02406" lon="0.17701">
        <ele>716</ele>
        <time>2019-02-15T19:41:26.990Z</time>
      </trkpt>
      <trkpt lat="43.02417" lon="0.17702">
        <ele>718</ele>
        <time>2019-02-15T19:41:39.000Z</time>
      </trkpt>
      <trkpt lat="43.02428" lon="0.17702">
        <ele>719</ele>
        <time>2019-02-15T19:41:49.000Z</time>
      </trkpt>
      <trkpt lat="43.02438" lon="0.17706">
        <ele>722</ele>
        <time>2019-02-15T19:42:06.000Z</time>
      </trkpt>
      <trkpt lat="43.02448" lon="0.17704">
        <ele>723</ele>
        <time>2019-02-15T19:42:17.000Z</time>
      </trkpt>
      <trkpt lat="43.02453" lon="0.17693">
        <ele>724</ele>
        <time>2019-02-15T19:42:25.000Z</time>
      </trkpt>
      <trkpt lat="43.0246" lon="0.17684">
        <ele>725</ele>
        <time>2019-02-15T19:42:36.990Z</time>
      </trkpt>
      <trkpt lat="43.02469" lon="0.1768">
        <ele>726</ele>
        <time>2019-02-15T19:42:46.990Z</time>
      </trkpt>
      <trkpt lat="43.02478" lon="0.17679">
        <ele>728</ele>
        <time>2019-02-15T19:42:56.990Z</time>
      </trkpt>
      <trkpt lat="43.02488" lon="0.17676">
        <ele>729</ele>
        <time>2019-02-15T19:43:08.990Z</time>
      </trkpt>
      <trkpt lat="43.02498" lon="0.17675">
        <ele>731</ele>
        <time>2019-02-15T19:43:19.990Z</time>
      </trkpt>
      <trkpt lat="43.02508" lon="0.17674">
        <ele>733</ele>
        <time>2019-02-15T19:43:33.000Z</time>
      </trkpt>
      <trkpt lat="43.02517" lon="0.17671">
        <ele>734</ele>
        <time>2019-02-15T19:43:45.000Z</time>
      </trkpt>
      <trkpt lat="43.02526" lon="0.17669">
        <ele>735</ele>
        <time>2019-02-15T19:43:56.000Z</time>
      </trkpt>
      <trkpt lat="43.02535" lon="0.17666">
        <ele>738</ele>
        <time>2019-02-15T19:44:07.990Z</time>
      </trkpt>
      <trkpt lat="43.02545" lon="0.17668">
        <ele>738</ele>
        <time>2019-02-15T19:44:16.000Z</time>
      </trkpt>
      <trkpt lat="43.02554" lon="0.17666">
        <ele>740</ele>
        <time>2019-02-15T19:44:27.000Z</time>
      </trkpt>
      <trkpt lat="43.02563" lon="0.17669">
        <ele>742</ele>
        <time>2019-02-15T19:44:35.990Z</time>
      </trkpt>
      <trkpt lat="43.02573" lon="0.1767">
        <ele>742.28828745719</ele>
        <time>2019-02-15T19:44:49.990Z</time>
      </trkpt>
      <trkpt lat="43.02583" lon="0.17668">
        <ele>745</ele>
        <time>2019-02-15T19:45:03.990Z</time>
      </trkpt>
      <trkpt lat="43.02592" lon="0.17664">
        <ele>746</ele>
        <time>2019-02-15T19:45:14.000Z</time>
      </trkpt>
      <trkpt lat="43.02601" lon="0.17665">
        <ele>747</ele>
        <time>2019-02-15T19:45:23.000Z</time>
      </trkpt>
      <trkpt lat="43.0261" lon="0.17667">
        <ele>749</ele>
        <time>2019-02-15T19:45:36.000Z</time>
      </trkpt>
      <trkpt lat="43.0262" lon="0.17668">
        <ele>750</ele>
        <time>2019-02-15T19:45:43.990Z</time>
      </trkpt>
      <trkpt lat="43.0263" lon="0.17667">
        <ele>750.3299968</ele>
        <time>2019-02-15T19:45:52.000Z</time>
      </trkpt>
      <trkpt lat="43.0264" lon="0.17667">
        <ele>752</ele>
        <time>2019-02-15T19:46:01.990Z</time>
      </trkpt>
      <trkpt lat="43.02649" lon="0.17667">
        <ele>753</ele>
        <time>2019-02-15T19:46:12.000Z</time>
      </trkpt>
      <trkpt lat="43.02659" lon="0.17664">
        <ele>755</ele>
        <time>2019-02-15T19:46:25.000Z</time>
      </trkpt>
      <trkpt lat="43.02668" lon="0.17668">
        <ele>757</ele>
        <time>2019-02-15T19:46:36.990Z</time>
      </trkpt>
      <trkpt lat="43.02677" lon="0.17665">
        <ele>760</ele>
        <time>2019-02-15T19:46:54.000Z</time>
      </trkpt>
      <trkpt lat="43.02687" lon="0.17666">
        <ele>760.31730461538</ele>
        <time>2019-02-15T19:47:06.000Z</time>
      </trkpt>
      <trkpt lat="43.02695" lon="0.17672">
        <ele>762</ele>
        <time>2019-02-15T19:47:14.000Z</time>
      </trkpt>
      <trkpt lat="43.02704" lon="0.17678">
        <ele>763</ele>
        <time>2019-02-15T19:47:24.000Z</time>
      </trkpt>
      <trkpt lat="43.02712" lon="0.17685">
        <ele>766</ele>
        <time>2019-02-15T19:47:42.000Z</time>
      </trkpt>
      <trkpt lat="43.02719" lon="0.17691">
        <ele>767</ele>
        <time>2019-02-15T19:47:51.000Z</time>
      </trkpt>
      <trkpt lat="43.02724" lon="0.17702">
        <ele>769</ele>
        <time>2019-02-15T19:48:06.000Z</time>
      </trkpt>
      <trkpt lat="43.0273" lon="0.17715">
        <ele>770</ele>
        <time>2019-02-15T19:48:20.000Z</time>
      </trkpt>
      <trkpt lat="43.02739" lon="0.17718">
        <ele>772</ele>
        <time>2019-02-15T19:48:41.000Z</time>
      </trkpt>
      <trkpt lat="43.02736" lon="0.17705">
        <ele>773</ele>
        <time>2019-02-15T19:49:02.000Z</time>
      </trkpt>
      <trkpt lat="43.02747" lon="0.17703">
        <ele>773</ele>
        <time>2019-02-15T19:49:08.000Z</time>
      </trkpt>
      <trkpt lat="43.02742" lon="0.17714">
        <ele>773</ele>
        <time>2019-02-15T19:49:45.000Z</time>
      </trkpt>
      <trkpt lat="43.0274" lon="0.177">
        <ele>774</ele>
        <time>2019-02-15T19:50:11.000Z</time>
      </trkpt>
      <trkpt lat="43.0274" lon="0.17688">
        <ele>773</ele>
        <time>2019-02-15T19:50:24.000Z</time>
      </trkpt>
      <trkpt lat="43.02734" lon="0.17698">
        <ele>774</ele>
        <time>2019-02-15T19:50:49.000Z</time>
      </trkpt>
      <trkpt lat="43.02741" lon="0.17709">
        <ele>773</ele>
        <time>2019-02-15T19:52:11.000Z</time>
      </trkpt>
      <trkpt lat="43.02749" lon="0.17718">
        <ele>773</ele>
        <time>2019-02-15T19:52:15.000Z</time>
      </trkpt>
      <trkpt lat="43.0276" lon="0.17717">
        <ele>775</ele>
        <time>2019-02-15T19:53:08.000Z</time>
      </trkpt>
      <trkpt lat="43.02766" lon="0.17707">
        <ele>777</ele>
        <time>2019-02-15T19:53:17.000Z</time>
      </trkpt>
      <trkpt lat="43.02774" lon="0.177">
        <ele>778</ele>
        <time>2019-02-15T19:53:25.990Z</time>
      </trkpt>
      <trkpt lat="43.02782" lon="0.17694">
        <ele>780</ele>
        <time>2019-02-15T19:53:39.000Z</time>
      </trkpt>
      <trkpt lat="43.02792" lon="0.17694">
        <ele>780</ele>
        <time>2019-02-15T19:53:48.000Z</time>
      </trkpt>
      <trkpt lat="43.02803" lon="0.17695">
        <ele>781</ele>
        <time>2019-02-15T19:53:52.990Z</time>
      </trkpt>
      <trkpt lat="43.02808" lon="0.17685">
        <ele>782</ele>
        <time>2019-02-15T19:54:05.000Z</time>
      </trkpt>
      <trkpt lat="43.02813" lon="0.17701">
        <ele>783</ele>
        <time>2019-02-15T19:54:14.000Z</time>
      </trkpt>
      <trkpt lat="43.02808" lon="0.17713">
        <ele>785</ele>
        <time>2019-02-15T19:54:19.000Z</time>
      </trkpt>
      <trkpt lat="43.02798" lon="0.17712">
        <ele>786</ele>
        <time>2019-02-15T19:54:26.000Z</time>
      </trkpt>
      <trkpt lat="43.02789" lon="0.1771">
        <ele>787</ele>
        <time>2019-02-15T19:54:41.000Z</time>
      </trkpt>
      <trkpt lat="43.02779" lon="0.17716">
        <ele>787</ele>
        <time>2019-02-15T19:54:50.000Z</time>
      </trkpt>
      <trkpt lat="43.02771" lon="0.17725">
        <ele>787</ele>
        <time>2019-02-15T19:54:59.000Z</time>
      </trkpt>
      <trkpt lat="43.02763" lon="0.17736">
        <ele>787</ele>
        <time>2019-02-15T19:55:07.000Z</time>
      </trkpt>
      <trkpt lat="43.02759" lon="0.1775">
        <ele>788.33018970451</ele>
        <time>2019-02-15T19:55:18.000Z</time>
      </trkpt>
      <trkpt lat="43.02754" lon="0.1776">
        <ele>790</ele>
        <time>2019-02-15T19:55:28.000Z</time>
      </trkpt>
      <trkpt lat="43.02744" lon="0.17764">
        <ele>791</ele>
        <time>2019-02-15T19:55:46.000Z</time>
      </trkpt>
      <trkpt lat="43.02735" lon="0.17759">
        <ele>793</ele>
        <time>2019-02-15T19:55:58.000Z</time>
      </trkpt>
      <trkpt lat="43.02726" lon="0.17753">
        <ele>795</ele>
        <time>2019-02-15T19:56:10.000Z</time>
      </trkpt>
      <trkpt lat="43.02716" lon="0.1775">
        <ele>797</ele>
        <time>2019-02-15T19:56:23.990Z</time>
      </trkpt>
      <trkpt lat="43.02705" lon="0.17749">
        <ele>799</ele>
        <time>2019-02-15T19:56:36.000Z</time>
      </trkpt>
      <trkpt lat="43.02696" lon="0.17745">
        <ele>799</ele>
        <time>2019-02-15T19:56:46.000Z</time>
      </trkpt>
      <trkpt lat="43.02686" lon="0.17745">
        <ele>802</ele>
        <time>2019-02-15T19:56:56.000Z</time>
      </trkpt>
      <trkpt lat="43.02679" lon="0.17753">
        <ele>803</ele>
        <time>2019-02-15T19:57:05.000Z</time>
      </trkpt>
      <trkpt lat="43.02671" lon="0.1776">
        <ele>805</ele>
        <time>2019-02-15T19:57:16.000Z</time>
      </trkpt>
      <trkpt lat="43.02663" lon="0.17764">
        <ele>806</ele>
        <time>2019-02-15T19:57:27.990Z</time>
      </trkpt>
      <trkpt lat="43.02654" lon="0.17766">
        <ele>808</ele>
        <time>2019-02-15T19:57:40.000Z</time>
      </trkpt>
      <trkpt lat="43.02645" lon="0.17774">
        <ele>809</ele>
        <time>2019-02-15T19:57:51.000Z</time>
      </trkpt>
      <trkpt lat="43.02637" lon="0.17779">
        <ele>812</ele>
        <time>2019-02-15T19:58:02.000Z</time>
      </trkpt>
      <trkpt lat="43.0263" lon="0.17786">
        <ele>814</ele>
        <time>2019-02-15T19:58:12.970Z</time>
      </trkpt>
      <trkpt lat="43.02621" lon="0.17791">
        <ele>815</ele>
        <time>2019-02-15T19:58:27.000Z</time>
      </trkpt>
      <trkpt lat="43.02613" lon="0.178">
        <ele>817</ele>
        <time>2019-02-15T19:58:41.000Z</time>
      </trkpt>
      <trkpt lat="43.02606" lon="0.17809">
        <ele>820</ele>
        <time>2019-02-15T19:58:57.990Z</time>
      </trkpt>
      <trkpt lat="43.02601" lon="0.1782">
        <ele>822</ele>
        <time>2019-02-15T19:59:19.990Z</time>
      </trkpt>
      <trkpt lat="43.02592" lon="0.17825">
        <ele>824</ele>
        <time>2019-02-15T19:59:34.000Z</time>
      </trkpt>
      <trkpt lat="43.02583" lon="0.17833">
        <ele>826</ele>
        <time>2019-02-15T19:59:46.000Z</time>
      </trkpt>
      <trkpt lat="43.02576" lon="0.17842">
        <ele>828</ele>
        <time>2019-02-15T19:59:53.960Z</time>
      </trkpt>
      <trkpt lat="43.02567" lon="0.17847">
        <ele>828.47917333333</ele>
        <time>2019-02-15T20:00:03.000Z</time>
      </trkpt>
      <trkpt lat="43.02563" lon="0.17861">
        <ele>832</ele>
        <time>2019-02-15T20:00:17.000Z</time>
      </trkpt>
      <trkpt lat="43.02572" lon="0.17862">
        <ele>833.20491648481</ele>
        <time>2019-02-15T20:00:28.000Z</time>
      </trkpt>
      <trkpt lat="43.02582" lon="0.17857">
        <ele>836</ele>
        <time>2019-02-15T20:00:42.000Z</time>
      </trkpt>
      <trkpt lat="43.02591" lon="0.17856">
        <ele>838</ele>
        <time>2019-02-15T20:00:53.000Z</time>
      </trkpt>
      <trkpt lat="43.026" lon="0.17851">
        <ele>841</ele>
        <time>2019-02-15T20:01:14.000Z</time>
      </trkpt>
      <trkpt lat="43.02609" lon="0.1785">
        <ele>842.07142465303</ele>
        <time>2019-02-15T20:01:24.000Z</time>
      </trkpt>
      <trkpt lat="43.02618" lon="0.17855">
        <ele>844</ele>
        <time>2019-02-15T20:01:39.000Z</time>
      </trkpt>
      <trkpt lat="43.02627" lon="0.17858">
        <ele>847.31531728918</ele>
        <time>2019-02-15T20:01:57.000Z</time>
      </trkpt>
      <trkpt lat="43.02636" lon="0.17862">
        <ele>850</ele>
        <time>2019-02-15T20:02:10.000Z</time>
      </trkpt>
      <trkpt lat="43.02647" lon="0.17865">
        <ele>852</ele>
        <time>2019-02-15T20:02:26.000Z</time>
      </trkpt>
      <trkpt lat="43.02655" lon="0.1787">
        <ele>855</ele>
        <time>2019-02-15T20:02:39.990Z</time>
      </trkpt>
      <trkpt lat="43.02664" lon="0.17875">
        <ele>859</ele>
        <time>2019-02-15T20:02:56.000Z</time>
      </trkpt>
      <trkpt lat="43.0267" lon="0.17884">
        <ele>862</ele>
        <time>2019-02-15T20:03:27.000Z</time>
      </trkpt>
      <trkpt lat="43.02675" lon="0.17896">
        <ele>863</ele>
        <time>2019-02-15T20:03:29.000Z</time>
      </trkpt>
      <trkpt lat="43.0268" lon="0.17906">
        <ele>866</ele>
        <time>2019-02-15T20:03:44.000Z</time>
      </trkpt>
      <trkpt lat="43.02688" lon="0.17915">
        <ele>868.67934608696</ele>
        <time>2019-02-15T20:03:58.000Z</time>
      </trkpt>
      <trkpt lat="43.02694" lon="0.17925">
        <ele>871</ele>
        <time>2019-02-15T20:04:13.000Z</time>
      </trkpt>
      <trkpt lat="43.02699" lon="0.17938">
        <ele>873</ele>
        <time>2019-02-15T20:04:30.000Z</time>
      </trkpt>
      <trkpt lat="43.02706" lon="0.17948">
        <ele>877</ele>
        <time>2019-02-15T20:04:50.000Z</time>
      </trkpt>
      <trkpt lat="43.02697" lon="0.1794">
        <ele>881</ele>
        <time>2019-02-15T20:05:16.960Z</time>
      </trkpt>
      <trkpt lat="43.02689" lon="0.17932">
        <ele>883</ele>
        <time>2019-02-15T20:05:29.990Z</time>
      </trkpt>
      <trkpt lat="43.02682" lon="0.17941">
        <ele>885</ele>
        <time>2019-02-15T20:05:39.000Z</time>
      </trkpt>
      <trkpt lat="43.02675" lon="0.1795">
        <ele>886</ele>
        <time>2019-02-15T20:05:49.990Z</time>
      </trkpt>
      <trkpt lat="43.02665" lon="0.17954">
        <ele>890</ele>
        <time>2019-02-15T20:06:13.000Z</time>
      </trkpt>
      <trkpt lat="43.02658" lon="0.17964">
        <ele>893.3163277301</ele>
        <time>2019-02-15T20:06:27.000Z</time>
      </trkpt>
      <trkpt lat="43.02651" lon="0.17973">
        <ele>895</ele>
        <time>2019-02-15T20:06:43.990Z</time>
      </trkpt>
      <trkpt lat="43.02648" lon="0.17985">
        <ele>899</ele>
        <time>2019-02-15T20:07:00.000Z</time>
      </trkpt>
      <trkpt lat="43.02644" lon="0.17999">
        <ele>902</ele>
        <time>2019-02-15T20:07:16.000Z</time>
      </trkpt>
      <trkpt lat="43.02637" lon="0.18007">
        <ele>904</ele>
        <time>2019-02-15T20:07:26.000Z</time>
      </trkpt>
      <trkpt lat="43.02633" lon="0.18019">
        <ele>905</ele>
        <time>2019-02-15T20:07:42.000Z</time>
      </trkpt>
      <trkpt lat="43.0263" lon="0.18031">
        <ele>907</ele>
        <time>2019-02-15T20:07:59.000Z</time>
      </trkpt>
      <trkpt lat="43.0263" lon="0.18044">
        <ele>910</ele>
        <time>2019-02-15T20:08:10.990Z</time>
      </trkpt>
      <trkpt lat="43.02626" lon="0.18055">
        <ele>913</ele>
        <time>2019-02-15T20:08:29.000Z</time>
      </trkpt>
      <trkpt lat="43.02626" lon="0.18067">
        <ele>915</ele>
        <time>2019-02-15T20:08:45.000Z</time>
      </trkpt>
      <trkpt lat="43.02626" lon="0.1808">
        <ele>917.34653452799</ele>
        <time>2019-02-15T20:08:59.000Z</time>
      </trkpt>
      <trkpt lat="43.02621" lon="0.1809">
        <ele>921</ele>
        <time>2019-02-15T20:09:17.000Z</time>
      </trkpt>
      <trkpt lat="43.02616" lon="0.18103">
        <ele>922</ele>
        <time>2019-02-15T20:09:28.000Z</time>
      </trkpt>
      <trkpt lat="43.02615" lon="0.18115">
        <ele>923</ele>
        <time>2019-02-15T20:09:38.000Z</time>
      </trkpt>
      <trkpt lat="43.02608" lon="0.18123">
        <ele>927</ele>
        <time>2019-02-15T20:09:52.000Z</time>
      </trkpt>
      <trkpt lat="43.02606" lon="0.18135">
        <ele>930</ele>
        <time>2019-02-15T20:10:09.000Z</time>
      </trkpt>
      <trkpt lat="43.02598" lon="0.18144">
        <ele>931</ele>
        <time>2019-02-15T20:10:23.000Z</time>
      </trkpt>
      <trkpt lat="43.02588" lon="0.18147">
        <ele>934</ele>
        <time>2019-02-15T20:10:36.990Z</time>
      </trkpt>
      <trkpt lat="43.0258" lon="0.18155">
        <ele>935</ele>
        <time>2019-02-15T20:11:08.000Z</time>
      </trkpt>
      <trkpt lat="43.02587" lon="0.18163">
        <ele>935</ele>
        <time>2019-02-15T20:11:17.000Z</time>
      </trkpt>
      <trkpt lat="43.02597" lon="0.18164">
        <ele>935</ele>
        <time>2019-02-15T20:11:30.000Z</time>
      </trkpt>
      <trkpt lat="43.02588" lon="0.18166">
        <ele>935</ele>
        <time>2019-02-15T20:11:36.000Z</time>
      </trkpt>
      <trkpt lat="43.02588" lon="0.18151">
        <ele>935</ele>
        <time>2019-02-15T20:11:54.000Z</time>
      </trkpt>
      <trkpt lat="43.02579" lon="0.18152">
        <ele>934</ele>
        <time>2019-02-15T20:13:17.000Z</time>
      </trkpt>
      <trkpt lat="43.02588" lon="0.18154">
        <ele>934</ele>
        <time>2019-02-15T20:13:44.000Z</time>
      </trkpt>
      <trkpt lat="43.02589" lon="0.18168">
        <ele>934</ele>
        <time>2019-02-15T20:13:54.000Z</time>
      </trkpt>
      <trkpt lat="43.02582" lon="0.18157">
        <ele>935</ele>
        <time>2019-02-15T20:14:09.000Z</time>
      </trkpt>
      <trkpt lat="43.02578" lon="0.18145">
        <ele>935.95713867759</ele>
        <time>2019-02-15T20:14:25.000Z</time>
      </trkpt>
      <trkpt lat="43.02574" lon="0.18133">
        <ele>935</ele>
        <time>2019-02-15T20:14:40.000Z</time>
      </trkpt>
      <trkpt lat="43.02574" lon="0.1815">
        <ele>935.24427421246</ele>
        <time>2019-02-15T20:15:20.990Z</time>
      </trkpt>
      <trkpt lat="43.02583" lon="0.18153">
        <ele>935</ele>
        <time>2019-02-15T20:15:53.000Z</time>
      </trkpt>
      <trkpt lat="43.02593" lon="0.18154">
        <ele>935</ele>
        <time>2019-02-15T20:16:20.990Z</time>
      </trkpt>
      <trkpt lat="43.02584" lon="0.1816">
        <ele>935</ele>
        <time>2019-02-15T20:16:45.000Z</time>
      </trkpt>
      <trkpt lat="43.02575" lon="0.18164">
        <ele>937.26717736262</ele>
        <time>2019-02-15T20:16:56.000Z</time>
      </trkpt>
      <trkpt lat="43.02565" lon="0.18171">
        <ele>940</ele>
        <time>2019-02-15T20:17:12.990Z</time>
      </trkpt>
      <trkpt lat="43.02558" lon="0.1818">
        <ele>941</ele>
        <time>2019-02-15T20:17:22.000Z</time>
      </trkpt>
      <trkpt lat="43.02549" lon="0.18185">
        <ele>945</ele>
        <time>2019-02-15T20:17:43.000Z</time>
      </trkpt>
      <trkpt lat="43.02542" lon="0.18193">
        <ele>947</ele>
        <time>2019-02-15T20:18:08.000Z</time>
      </trkpt>
      <trkpt lat="43.02535" lon="0.18206">
        <ele>949</ele>
        <time>2019-02-15T20:18:23.990Z</time>
      </trkpt>
      <trkpt lat="43.02533" lon="0.18218">
        <ele>950.19277034113</ele>
        <time>2019-02-15T20:18:34.000Z</time>
      </trkpt>
      <trkpt lat="43.02541" lon="0.18224">
        <ele>954</ele>
        <time>2019-02-15T20:18:51.990Z</time>
      </trkpt>
      <trkpt lat="43.0254" lon="0.18236">
        <ele>956</ele>
        <time>2019-02-15T20:19:12.000Z</time>
      </trkpt>
      <trkpt lat="43.02544" lon="0.18247">
        <ele>959</ele>
        <time>2019-02-15T20:19:35.130Z</time>
      </trkpt>
      <trkpt lat="43.02551" lon="0.18256">
        <ele>962</ele>
        <time>2019-02-15T20:19:49.000Z</time>
      </trkpt>
      <trkpt lat="43.0255" lon="0.18269">
        <ele>966</ele>
        <time>2019-02-15T20:20:10.000Z</time>
      </trkpt>
      <trkpt lat="43.02558" lon="0.18275">
        <ele>968</ele>
        <time>2019-02-15T20:20:39.000Z</time>
      </trkpt>
      <trkpt lat="43.02565" lon="0.18282">
        <ele>971</ele>
        <time>2019-02-15T20:20:58.000Z</time>
      </trkpt>
      <trkpt lat="43.02569" lon="0.18294">
        <ele>976</ele>
        <time>2019-02-15T20:21:29.000Z</time>
      </trkpt>
      <trkpt lat="43.02565" lon="0.18306">
        <ele>980</ele>
        <time>2019-02-15T20:21:56.990Z</time>
      </trkpt>
      <trkpt lat="43.02567" lon="0.18319">
        <ele>980</ele>
        <time>2019-02-15T20:22:09.000Z</time>
      </trkpt>
      <trkpt lat="43.02569" lon="0.18331">
        <ele>983</ele>
        <time>2019-02-15T20:22:27.000Z</time>
      </trkpt>
      <trkpt lat="43.02567" lon="0.18346">
        <ele>984</ele>
        <time>2019-02-15T20:22:45.000Z</time>
      </trkpt>
      <trkpt lat="43.02567" lon="0.18359">
        <ele>985</ele>
        <time>2019-02-15T20:23:07.000Z</time>
      </trkpt>
      <trkpt lat="43.02567" lon="0.18371">
        <ele>987</ele>
        <time>2019-02-15T20:23:16.990Z</time>
      </trkpt>
      <trkpt lat="43.02569" lon="0.18383">
        <ele>988.3500032</ele>
        <time>2019-02-15T20:23:32.000Z</time>
      </trkpt>
      <trkpt lat="43.02569" lon="0.18395">
        <ele>990</ele>
        <time>2019-02-15T20:23:46.000Z</time>
      </trkpt>
      <trkpt lat="43.02573" lon="0.18406">
        <ele>992.36</ele>
        <time>2019-02-15T20:23:57.030Z</time>
      </trkpt>
      <trkpt lat="43.0257" lon="0.18419">
        <ele>994</ele>
        <time>2019-02-15T20:24:12.000Z</time>
      </trkpt>
      <trkpt lat="43.02573" lon="0.18431">
        <ele>995</ele>
        <time>2019-02-15T20:24:43.000Z</time>
      </trkpt>
      <trkpt lat="43.02566" lon="0.18438">
        <ele>998</ele>
        <time>2019-02-15T20:25:07.990Z</time>
      </trkpt>
      <trkpt lat="43.02571" lon="0.18449">
        <ele>1000</ele>
        <time>2019-02-15T20:25:43.000Z</time>
      </trkpt>
      <trkpt lat="43.02572" lon="0.18462">
        <ele>1003</ele>
        <time>2019-02-15T20:26:03.000Z</time>
      </trkpt>
      <trkpt lat="43.02575" lon="0.18474">
        <ele>1004</ele>
        <time>2019-02-15T20:26:39.000Z</time>
      </trkpt>
      <trkpt lat="43.02573" lon="0.18486">
        <ele>1006</ele>
        <time>2019-02-15T20:26:48.970Z</time>
      </trkpt>
      <trkpt lat="43.02573" lon="0.18498">
        <ele>1007.3333373968</ele>
        <time>2019-02-15T20:26:59.000Z</time>
      </trkpt>
      <trkpt lat="43.02573" lon="0.18511">
        <ele>1010</ele>
        <time>2019-02-15T20:27:11.000Z</time>
      </trkpt>
      <trkpt lat="43.02569" lon="0.18523">
        <ele>1012</ele>
        <time>2019-02-15T20:27:33.000Z</time>
      </trkpt>
      <trkpt lat="43.02568" lon="0.18536">
        <ele>1015</ele>
        <time>2019-02-15T20:27:52.000Z</time>
      </trkpt>
      <trkpt lat="43.02571" lon="0.18548">
        <ele>1017</ele>
        <time>2019-02-15T20:28:22.000Z</time>
      </trkpt>
      <trkpt lat="43.02567" lon="0.18561">
        <ele>1019.0571423347</ele>
        <time>2019-02-15T20:28:45.000Z</time>
      </trkpt>
      <trkpt lat="43.02575" lon="0.18555">
        <ele>1019</ele>
        <time>2019-02-15T20:29:00.000Z</time>
      </trkpt>
      <trkpt lat="43.02574" lon="0.18568">
        <ele>1020</ele>
        <time>2019-02-15T20:29:19.000Z</time>
      </trkpt>
      <trkpt lat="43.02574" lon="0.18581">
        <ele>1021</ele>
        <time>2019-02-15T20:30:34.000Z</time>
      </trkpt>
      <trkpt lat="43.0257" lon="0.18593">
        <ele>1022</ele>
        <time>2019-02-15T20:30:41.000Z</time>
      </trkpt>
      <trkpt lat="43.02568" lon="0.18606">
        <ele>1025</ele>
        <time>2019-02-15T20:30:54.000Z</time>
      </trkpt>
      <trkpt lat="43.02565" lon="0.18619">
        <ele>1028</ele>
        <time>2019-02-15T20:31:12.000Z</time>
      </trkpt>
      <trkpt lat="43.02563" lon="0.18632">
        <ele>1030</ele>
        <time>2019-02-15T20:31:29.000Z</time>
      </trkpt>
      <trkpt lat="43.02557" lon="0.18645">
        <ele>1034</ele>
        <time>2019-02-15T20:31:48.000Z</time>
      </trkpt>
      <trkpt lat="43.02554" lon="0.18658">
        <ele>1034</ele>
        <time>2019-02-15T20:32:01.990Z</time>
      </trkpt>
      <trkpt lat="43.02548" lon="0.18668">
        <ele>1037</ele>
        <time>2019-02-15T20:32:19.000Z</time>
      </trkpt>
      <trkpt lat="43.02545" lon="0.1868">
        <ele>1038</ele>
        <time>2019-02-15T20:32:36.000Z</time>
      </trkpt>
      <trkpt lat="43.02543" lon="0.18692">
        <ele>1042</ele>
        <time>2019-02-15T20:33:07.000Z</time>
      </trkpt>
      <trkpt lat="43.02537" lon="0.18701">
        <ele>1044</ele>
        <time>2019-02-15T20:33:30.000Z</time>
      </trkpt>
      <trkpt lat="43.02533" lon="0.18714">
        <ele>1047</ele>
        <time>2019-02-15T20:33:52.000Z</time>
      </trkpt>
      <trkpt lat="43.0253" lon="0.18727">
        <ele>1050</ele>
        <time>2019-02-15T20:34:14.000Z</time>
      </trkpt>
      <trkpt lat="43.02526" lon="0.1874">
        <ele>1050</ele>
        <time>2019-02-15T20:34:26.000Z</time>
      </trkpt>
      <trkpt lat="43.02524" lon="0.18752">
        <ele>1052</ele>
        <time>2019-02-15T20:34:40.000Z</time>
      </trkpt>
      <trkpt lat="43.02521" lon="0.18765">
        <ele>1054</ele>
        <time>2019-02-15T20:34:55.000Z</time>
      </trkpt>
      <trkpt lat="43.0252" lon="0.18777">
        <ele>1056</ele>
        <time>2019-02-15T20:35:11.990Z</time>
      </trkpt>
      <trkpt lat="43.02514" lon="0.18788">
        <ele>1057</ele>
        <time>2019-02-15T20:35:29.000Z</time>
      </trkpt>
      <trkpt lat="43.0251" lon="0.18799">
        <ele>1059.3500032</ele>
        <time>2019-02-15T20:35:52.000Z</time>
      </trkpt>
      <trkpt lat="43.02503" lon="0.1881">
        <ele>1061</ele>
        <time>2019-02-15T20:36:06.000Z</time>
      </trkpt>
      <trkpt lat="43.02499" lon="0.1882">
        <ele>1063</ele>
        <time>2019-02-15T20:36:28.000Z</time>
      </trkpt>
      <trkpt lat="43.02492" lon="0.18831">
        <ele>1065</ele>
        <time>2019-02-15T20:36:42.000Z</time>
      </trkpt>
      <trkpt lat="43.02487" lon="0.18843">
        <ele>1067.8023975044</ele>
        <time>2019-02-15T20:37:08.000Z</time>
      </trkpt>
      <trkpt lat="43.02482" lon="0.18854">
        <ele>1070</ele>
        <time>2019-02-15T20:37:30.000Z</time>
      </trkpt>
      <trkpt lat="43.02475" lon="0.18865">
        <ele>1073</ele>
        <time>2019-02-15T20:37:45.990Z</time>
      </trkpt>
      <trkpt lat="43.02472" lon="0.18877">
        <ele>1074</ele>
        <time>2019-02-15T20:37:55.990Z</time>
      </trkpt>
      <trkpt lat="43.02467" lon="0.18866">
        <ele>1076</ele>
        <time>2019-02-15T20:38:08.990Z</time>
      </trkpt>
      <trkpt lat="43.02467" lon="0.18878">
        <ele>1077.0579712834</ele>
        <time>2019-02-15T20:38:27.000Z</time>
      </trkpt>
      <trkpt lat="43.0246" lon="0.18887">
        <ele>1079.3271048161</ele>
        <time>2019-02-15T20:38:45.000Z</time>
      </trkpt>
      <trkpt lat="43.02463" lon="0.18898">
        <ele>1081</ele>
        <time>2019-02-15T20:39:02.000Z</time>
      </trkpt>
      <trkpt lat="43.02459" lon="0.18886">
        <ele>1081</ele>
        <time>2019-02-15T20:39:26.990Z</time>
      </trkpt>
      <trkpt lat="43.02456" lon="0.18898">
        <ele>1083</ele>
        <time>2019-02-15T20:41:08.000Z</time>
      </trkpt>
      <trkpt lat="43.0245" lon="0.1891">
        <ele>1086</ele>
        <time>2019-02-15T20:41:23.000Z</time>
      </trkpt>
      <trkpt lat="43.02446" lon="0.18921">
        <ele>1087.0441223529</ele>
        <time>2019-02-15T20:41:33.000Z</time>
      </trkpt>
      <trkpt lat="43.02439" lon="0.18929">
        <ele>1089</ele>
        <time>2019-02-15T20:41:46.990Z</time>
      </trkpt>
      <trkpt lat="43.02431" lon="0.18936">
        <ele>1094</ele>
        <time>2019-02-15T20:42:14.990Z</time>
      </trkpt>
      <trkpt lat="43.02428" lon="0.18948">
        <ele>1096</ele>
        <time>2019-02-15T20:42:28.000Z</time>
      </trkpt>
      <trkpt lat="43.02423" lon="0.18959">
        <ele>1098</ele>
        <time>2019-02-15T20:42:46.990Z</time>
      </trkpt>
      <trkpt lat="43.02416" lon="0.18966">
        <ele>1100</ele>
        <time>2019-02-15T20:43:01.000Z</time>
      </trkpt>
      <trkpt lat="43.0241" lon="0.18977">
        <ele>1104</ele>
        <time>2019-02-15T20:43:24.990Z</time>
      </trkpt>
      <trkpt lat="43.02402" lon="0.18983">
        <ele>1107</ele>
        <time>2019-02-15T20:43:41.000Z</time>
      </trkpt>
      <trkpt lat="43.02395" lon="0.18993">
        <ele>1111</ele>
        <time>2019-02-15T20:44:10.000Z</time>
      </trkpt>
      <trkpt lat="43.02386" lon="0.18995">
        <ele>1112</ele>
        <time>2019-02-15T20:44:24.990Z</time>
      </trkpt>
      <trkpt lat="43.02378" lon="0.19002">
        <ele>1114.9782586516</ele>
        <time>2019-02-15T20:44:45.000Z</time>
      </trkpt>
      <trkpt lat="43.02371" lon="0.1901">
        <ele>1117</ele>
        <time>2019-02-15T20:45:01.000Z</time>
      </trkpt>
      <trkpt lat="43.02367" lon="0.19022">
        <ele>1121</ele>
        <time>2019-02-15T20:45:34.000Z</time>
      </trkpt>
      <trkpt lat="43.02358" lon="0.19023">
        <ele>1124</ele>
        <time>2019-02-15T20:45:57.990Z</time>
      </trkpt>
      <trkpt lat="43.02356" lon="0.19036">
        <ele>1125.6499968</ele>
        <time>2019-02-15T20:46:19.000Z</time>
      </trkpt>
      <trkpt lat="43.02346" lon="0.19033">
        <ele>1128</ele>
        <time>2019-02-15T20:46:38.990Z</time>
      </trkpt>
      <trkpt lat="43.02336" lon="0.19034">
        <ele>1130</ele>
        <time>2019-02-15T20:47:34.990Z</time>
      </trkpt>
      <trkpt lat="43.02345" lon="0.19037">
        <ele>1130</ele>
        <time>2019-02-15T20:47:53.000Z</time>
      </trkpt>
      <trkpt lat="43.02338" lon="0.19044">
        <ele>1130</ele>
        <time>2019-02-15T20:48:21.000Z</time>
      </trkpt>
      <trkpt lat="43.02347" lon="0.19044">
        <ele>1132.2613672727</ele>
        <time>2019-02-15T20:48:34.000Z</time>
      </trkpt>
      <trkpt lat="43.02356" lon="0.19048">
        <ele>1135</ele>
        <time>2019-02-15T20:48:45.000Z</time>
      </trkpt>
      <trkpt lat="43.02364" lon="0.19053">
        <ele>1137.964288</ele>
        <time>2019-02-15T20:49:05.000Z</time>
      </trkpt>
      <trkpt lat="43.02373" lon="0.19057">
        <ele>1140</ele>
        <time>2019-02-15T20:49:14.000Z</time>
      </trkpt>
      <trkpt lat="43.02383" lon="0.19062">
        <ele>1146.3500032</ele>
        <time>2019-02-15T20:50:16.000Z</time>
      </trkpt>
      <trkpt lat="43.02391" lon="0.19068">
        <ele>1149</ele>
        <time>2019-02-15T20:50:35.000Z</time>
      </trkpt>
      <trkpt lat="43.02398" lon="0.19074">
        <ele>1153</ele>
        <time>2019-02-15T20:50:58.990Z</time>
      </trkpt>
      <trkpt lat="43.02392" lon="0.19084">
        <ele>1157</ele>
        <time>2019-02-15T20:51:30.960Z</time>
      </trkpt>
      <trkpt lat="43.02384" lon="0.19091">
        <ele>1160</ele>
        <time>2019-02-15T20:52:04.990Z</time>
      </trkpt>
      <trkpt lat="43.02377" lon="0.191">
        <ele>1161</ele>
        <time>2019-02-15T20:52:15.000Z</time>
      </trkpt>
      <trkpt lat="43.02369" lon="0.19104">
        <ele>1164</ele>
        <time>2019-02-15T20:52:33.990Z</time>
      </trkpt>
      <trkpt lat="43.02365" lon="0.19092">
        <ele>1166</ele>
        <time>2019-02-15T20:54:00.000Z</time>
      </trkpt>
      <trkpt lat="43.02358" lon="0.191">
        <ele>1167</ele>
        <time>2019-02-15T20:54:47.990Z</time>
      </trkpt>
      <trkpt lat="43.0236" lon="0.19113">
        <ele>1167</ele>
        <time>2019-02-15T20:55:07.990Z</time>
      </trkpt>
      <trkpt lat="43.02367" lon="0.19105">
        <ele>1167</ele>
        <time>2019-02-15T20:55:56.030Z</time>
      </trkpt>
      <trkpt lat="43.0236" lon="0.19098">
        <ele>1168</ele>
        <time>2019-02-15T20:58:49.990Z</time>
      </trkpt>
      <trkpt lat="43.02356" lon="0.1911">
        <ele>1167</ele>
        <time>2019-02-15T21:00:20.990Z</time>
      </trkpt>
      <trkpt lat="43.02348" lon="0.19116">
        <ele>1169.324077037</ele>
        <time>2019-02-15T21:01:04.000Z</time>
      </trkpt>
      <trkpt lat="43.0234" lon="0.1912">
        <ele>1171.0579712834</ele>
        <time>2019-02-15T21:01:21.000Z</time>
      </trkpt>
      <trkpt lat="43.02333" lon="0.19128">
        <ele>1175</ele>
        <time>2019-02-15T21:01:44.000Z</time>
      </trkpt>
      <trkpt lat="43.02323" lon="0.1913">
        <ele>1177.3500032</ele>
        <time>2019-02-15T21:02:25.000Z</time>
      </trkpt>
      <trkpt lat="43.02319" lon="0.19141">
        <ele>1180</ele>
        <time>2019-02-15T21:02:40.000Z</time>
      </trkpt>
      <trkpt lat="43.02314" lon="0.19152">
        <ele>1182</ele>
        <time>2019-02-15T21:02:52.000Z</time>
      </trkpt>
      <trkpt lat="43.02304" lon="0.19154">
        <ele>1183</ele>
        <time>2019-02-15T21:03:06.000Z</time>
      </trkpt>
      <trkpt lat="43.02296" lon="0.19149">
        <ele>1186</ele>
        <time>2019-02-15T21:03:24.000Z</time>
      </trkpt>
      <trkpt lat="43.02288" lon="0.19141">
        <ele>1190</ele>
        <time>2019-02-15T21:03:57.990Z</time>
      </trkpt>
      <trkpt lat="43.02281" lon="0.1915">
        <ele>1191.3177620403</ele>
        <time>2019-02-15T21:04:19.000Z</time>
      </trkpt>
      <trkpt lat="43.02271" lon="0.19145">
        <ele>1195</ele>
        <time>2019-02-15T21:04:42.000Z</time>
      </trkpt>
      <trkpt lat="43.02271" lon="0.19159">
        <ele>1197.9440560693</ele>
        <time>2019-02-15T21:05:02.000Z</time>
      </trkpt>
      <trkpt lat="43.02261" lon="0.19161">
        <ele>1201</ele>
        <time>2019-02-15T21:05:20.000Z</time>
      </trkpt>
      <trkpt lat="43.02251" lon="0.19163">
        <ele>1206</ele>
        <time>2019-02-15T21:06:04.000Z</time>
      </trkpt>
      <trkpt lat="43.02245" lon="0.19174">
        <ele>1208</ele>
        <time>2019-02-15T21:06:18.000Z</time>
      </trkpt>
      <trkpt lat="43.02242" lon="0.1916">
        <ele>1212</ele>
        <time>2019-02-15T21:06:55.000Z</time>
      </trkpt>
      <trkpt lat="43.02251" lon="0.19163">
        <ele>1212</ele>
        <time>2019-02-15T21:07:22.000Z</time>
      </trkpt>
      <trkpt lat="43.02242" lon="0.19163">
        <ele>1212</ele>
        <time>2019-02-15T21:07:44.990Z</time>
      </trkpt>
      <trkpt lat="43.02233" lon="0.19161">
        <ele>1214</ele>
        <time>2019-02-15T21:08:05.000Z</time>
      </trkpt>
      <trkpt lat="43.02225" lon="0.19153">
        <ele>1219</ele>
        <time>2019-02-15T21:08:40.000Z</time>
      </trkpt>
      <trkpt lat="43.02223" lon="0.19165">
        <ele>1221</ele>
        <time>2019-02-15T21:08:55.020Z</time>
      </trkpt>
      <trkpt lat="43.0222" lon="0.19178">
        <ele>1222</ele>
        <time>2019-02-15T21:09:06.000Z</time>
      </trkpt>
      <trkpt lat="43.02213" lon="0.19171">
        <ele>1226</ele>
        <time>2019-02-15T21:09:30.000Z</time>
      </trkpt>
      <trkpt lat="43.02204" lon="0.19175">
        <ele>1233</ele>
        <time>2019-02-15T21:10:21.000Z</time>
      </trkpt>
      <trkpt lat="43.02195" lon="0.1917">
        <ele>1235</ele>
        <time>2019-02-15T21:10:43.000Z</time>
      </trkpt>
      <trkpt lat="43.02185" lon="0.19166">
        <ele>1238</ele>
        <time>2019-02-15T21:11:07.000Z</time>
      </trkpt>
      <trkpt lat="43.02176" lon="0.19169">
        <ele>1242</ele>
        <time>2019-02-15T21:11:46.960Z</time>
      </trkpt>
      <trkpt lat="43.0217" lon="0.19179">
        <ele>1247</ele>
        <time>2019-02-15T21:12:27.000Z</time>
      </trkpt>
      <trkpt lat="43.02162" lon="0.19185">
        <ele>1248</ele>
        <time>2019-02-15T21:12:40.000Z</time>
      </trkpt>
      <trkpt lat="43.02153" lon="0.19188">
        <ele>1252</ele>
        <time>2019-02-15T21:13:25.000Z</time>
      </trkpt>
      <trkpt lat="43.02148" lon="0.19198">
        <ele>1258</ele>
        <time>2019-02-15T21:14:27.000Z</time>
      </trkpt>
      <trkpt lat="43.02139" lon="0.19197">
        <ele>1264</ele>
        <time>2019-02-15T21:15:10.000Z</time>
      </trkpt>
      <trkpt lat="43.02131" lon="0.19204">
        <ele>1268</ele>
        <time>2019-02-15T21:16:03.000Z</time>
      </trkpt>
      <trkpt lat="43.02122" lon="0.19207">
        <ele>1273</ele>
        <time>2019-02-15T21:16:50.030Z</time>
      </trkpt>
      <trkpt lat="43.02112" lon="0.19207">
        <ele>1277.0563387899</ele>
        <time>2019-02-15T21:17:25.990Z</time>
      </trkpt>
      <trkpt lat="43.02103" lon="0.1921">
        <ele>1280.3400064</ele>
        <time>2019-02-15T21:17:50.990Z</time>
      </trkpt>
      <trkpt lat="43.02095" lon="0.19207">
        <ele>1281</ele>
        <time>2019-02-15T21:19:15.990Z</time>
      </trkpt>
      <trkpt lat="43.02087" lon="0.19199">
        <ele>1284</ele>
        <time>2019-02-15T21:21:03.990Z</time>
      </trkpt>
      <trkpt lat="43.02079" lon="0.19193">
        <ele>1287</ele>
        <time>2019-02-15T21:21:15.000Z</time>
      </trkpt>
      <trkpt lat="43.0207" lon="0.19188">
        <ele>1288.2325598702</ele>
        <time>2019-02-15T21:21:27.990Z</time>
      </trkpt>
      <trkpt lat="43.02063" lon="0.19178">
        <ele>1289</ele>
        <time>2019-02-15T21:21:41.990Z</time>
      </trkpt>
      <trkpt lat="43.02054" lon="0.19175">
        <ele>1288</ele>
        <time>2019-02-15T21:22:25.000Z</time>
      </trkpt>
      <trkpt lat="43.02063" lon="0.19179">
        <ele>1288</ele>
        <time>2019-02-15T21:25:16.990Z</time>
      </trkpt>
      <trkpt lat="43.02054" lon="0.19179">
        <ele>1288</ele>
        <time>2019-02-15T21:26:04.990Z</time>
      </trkpt>
      <trkpt lat="43.02045" lon="0.19177">
        <ele>1289</ele>
        <time>2019-02-15T21:26:26.990Z</time>
      </trkpt>
      <trkpt lat="43.02036" lon="0.19173">
        <ele>1288</ele>
        <time>2019-02-15T21:26:38.000Z</time>
      </trkpt>
      <trkpt lat="43.02028" lon="0.19177">
        <ele>1285</ele>
        <time>2019-02-15T21:27:08.990Z</time>
      </trkpt>
      <trkpt lat="43.02021" lon="0.19186">
        <ele>1281</ele>
        <time>2019-02-15T21:27:29.990Z</time>
      </trkpt>
      <trkpt lat="43.02014" lon="0.19193">
        <ele>1278</ele>
        <time>2019-02-15T21:27:46.990Z</time>
      </trkpt>
      <trkpt lat="43.02005" lon="0.19195">
        <ele>1275</ele>
        <time>2019-02-15T21:28:08.990Z</time>
      </trkpt>
      <trkpt lat="43.01997" lon="0.19202">
        <ele>1273</ele>
        <time>2019-02-15T21:29:26.990Z</time>
      </trkpt>
      <trkpt lat="43.01993" lon="0.19215">
        <ele>1269</ele>
        <time>2019-02-15T21:29:43.000Z</time>
      </trkpt>
      <trkpt lat="43.01992" lon="0.19227">
        <ele>1265</ele>
        <time>2019-02-15T21:30:13.000Z</time>
      </trkpt>
      <trkpt lat="43.0199" lon="0.19239">
        <ele>1262</ele>
        <time>2019-02-15T21:30:33.000Z</time>
      </trkpt>
      <trkpt lat="43.01987" lon="0.19252">
        <ele>1260</ele>
        <time>2019-02-15T21:30:41.990Z</time>
      </trkpt>
      <trkpt lat="43.01985" lon="0.19265">
        <ele>1259</ele>
        <time>2019-02-15T21:30:48.990Z</time>
      </trkpt>
      <trkpt lat="43.01982" lon="0.19277">
        <ele>1259</ele>
        <time>2019-02-15T21:30:58.000Z</time>
      </trkpt>
      <trkpt lat="43.01977" lon="0.1929">
        <ele>1259</ele>
        <time>2019-02-15T21:31:06.990Z</time>
      </trkpt>
      <trkpt lat="43.01973" lon="0.19302">
        <ele>1259</ele>
        <time>2019-02-15T21:31:18.000Z</time>
      </trkpt>
      <trkpt lat="43.01966" lon="0.19311">
        <ele>1260</ele>
        <time>2019-02-15T21:31:28.000Z</time>
      </trkpt>
      <trkpt lat="43.0196" lon="0.19321">
        <ele>1259</ele>
        <time>2019-02-15T21:31:38.990Z</time>
      </trkpt>
      <trkpt lat="43.01958" lon="0.19334">
        <ele>1259</ele>
        <time>2019-02-15T21:31:48.000Z</time>
      </trkpt>
      <trkpt lat="43.01956" lon="0.19347">
        <ele>1259</ele>
        <time>2019-02-15T21:31:58.000Z</time>
      </trkpt>
      <trkpt lat="43.01951" lon="0.19357">
        <ele>1259</ele>
        <time>2019-02-15T21:32:09.990Z</time>
      </trkpt>
      <trkpt lat="43.01951" lon="0.19369">
        <ele>1257</ele>
        <time>2019-02-15T21:32:21.960Z</time>
      </trkpt>
      <trkpt lat="43.01949" lon="0.19382">
        <ele>1256</ele>
        <time>2019-02-15T21:32:34.990Z</time>
      </trkpt>
      <trkpt lat="43.01947" lon="0.19395">
        <ele>1254</ele>
        <time>2019-02-15T21:32:48.000Z</time>
      </trkpt>
      <trkpt lat="43.01949" lon="0.19407">
        <ele>1252</ele>
        <time>2019-02-15T21:33:16.990Z</time>
      </trkpt>
      <trkpt lat="43.01948" lon="0.1942">
        <ele>1249.6599936</ele>
        <time>2019-02-15T21:33:28.990Z</time>
      </trkpt>
      <trkpt lat="43.01947" lon="0.19432">
        <ele>1248</ele>
        <time>2019-02-15T21:33:43.990Z</time>
      </trkpt>
      <trkpt lat="43.01946" lon="0.19446">
        <ele>1245.6899968</ele>
        <time>2019-02-15T21:33:56.960Z</time>
      </trkpt>
      <trkpt lat="43.01951" lon="0.19457">
        <ele>1243</ele>
        <time>2019-02-15T21:34:20.990Z</time>
      </trkpt>
      <trkpt lat="43.01954" lon="0.1947">
        <ele>1239.9705788235</ele>
        <time>2019-02-15T21:34:31.990Z</time>
      </trkpt>
      <trkpt lat="43.01952" lon="0.19483">
        <ele>1238</ele>
        <time>2019-02-15T21:34:42.990Z</time>
      </trkpt>
      <trkpt lat="43.01947" lon="0.19494">
        <ele>1236</ele>
        <time>2019-02-15T21:34:51.990Z</time>
      </trkpt>
      <trkpt lat="43.01943" lon="0.19505">
        <ele>1235</ele>
        <time>2019-02-15T21:35:00.000Z</time>
      </trkpt>
      <trkpt lat="43.01946" lon="0.19517">
        <ele>1235</ele>
        <time>2019-02-15T21:35:33.990Z</time>
      </trkpt>
      <trkpt lat="43.01938" lon="0.19522">
        <ele>1234</ele>
        <time>2019-02-15T21:35:58.990Z</time>
      </trkpt>
      <trkpt lat="43.01944" lon="0.19532">
        <ele>1233</ele>
        <time>2019-02-15T21:38:46.990Z</time>
      </trkpt>
      <trkpt lat="43.01935" lon="0.19528">
        <ele>1234</ele>
        <time>2019-02-15T21:41:09.990Z</time>
      </trkpt>
      <trkpt lat="43.01943" lon="0.19533">
        <ele>1233.928575347</ele>
        <time>2019-02-15T21:41:53.000Z</time>
      </trkpt>
      <trkpt lat="43.01943" lon="0.19546">
        <ele>1233.6874971429</ele>
        <time>2019-02-15T21:42:29.000Z</time>
      </trkpt>
      <trkpt lat="43.01934" lon="0.19543">
        <ele>1233</ele>
        <time>2019-02-15T21:43:25.990Z</time>
      </trkpt>
      <trkpt lat="43.01942" lon="0.19533">
        <ele>1233</ele>
        <time>2019-02-15T21:43:41.000Z</time>
      </trkpt>
      <trkpt lat="43.01944" lon="0.1952">
        <ele>1233</ele>
        <time>2019-02-15T21:50:38.990Z</time>
      </trkpt>
      <trkpt lat="43.01938" lon="0.19529">
        <ele>1233</ele>
        <time>2019-02-15T21:53:21.990Z</time>
      </trkpt>
      <trkpt lat="43.01939" lon="0.19516">
        <ele>1233</ele>
        <time>2019-02-15T21:58:13.990Z</time>
      </trkpt>
      <trkpt lat="43.0194" lon="0.19529">
        <ele>1233</ele>
        <time>2019-02-15T21:58:44.990Z</time>
      </trkpt>
      <trkpt lat="43.01948" lon="0.19535">
        <ele>1232</ele>
        <time>2019-02-15T22:01:22.990Z</time>
      </trkpt>
      <trkpt lat="43.01939" lon="0.19536">
        <ele>1236</ele>
        <time>2019-02-15T22:17:11.990Z</time>
      </trkpt>
      <trkpt lat="43.01948" lon="0.19533">
        <ele>1236</ele>
        <time>2019-02-15T22:17:44.000Z</time>
      </trkpt>
      <trkpt lat="43.01948" lon="0.19521">
        <ele>1237</ele>
        <time>2019-02-15T22:24:31.990Z</time>
      </trkpt>
      <trkpt lat="43.0195" lon="0.19508">
        <ele>1238</ele>
        <time>2019-02-15T22:24:40.000Z</time>
      </trkpt>
      <trkpt lat="43.01955" lon="0.19495">
        <ele>1238</ele>
        <time>2019-02-15T22:24:46.990Z</time>
      </trkpt>
      <trkpt lat="43.01959" lon="0.19484">
        <ele>1238</ele>
        <time>2019-02-15T22:24:53.990Z</time>
      </trkpt>
      <trkpt lat="43.01963" lon="0.19472">
        <ele>1240.3090949289</ele>
        <time>2019-02-15T22:25:03.990Z</time>
      </trkpt>
      <trkpt lat="43.01965" lon="0.1946">
        <ele>1242.0285625469</ele>
        <time>2019-02-15T22:25:14.970Z</time>
      </trkpt>
      <trkpt lat="43.01966" lon="0.19447">
        <ele>1244.3148207407</ele>
        <time>2019-02-15T22:25:23.990Z</time>
      </trkpt>
      <trkpt lat="43.01968" lon="0.19434">
        <ele>1247.3400064</ele>
        <time>2019-02-15T22:25:35.990Z</time>
      </trkpt>
      <trkpt lat="43.01967" lon="0.19421">
        <ele>1250</ele>
        <time>2019-02-15T22:25:45.990Z</time>
      </trkpt>
      <trkpt lat="43.01964" lon="0.1941">
        <ele>1252</ele>
        <time>2019-02-15T22:26:10.000Z</time>
      </trkpt>
      <trkpt lat="43.01968" lon="0.19398">
        <ele>1255</ele>
        <time>2019-02-15T22:26:28.990Z</time>
      </trkpt>
      <trkpt lat="43.0197" lon="0.19385">
        <ele>1258</ele>
        <time>2019-02-15T22:26:43.990Z</time>
      </trkpt>
      <trkpt lat="43.01973" lon="0.19373">
        <ele>1259</ele>
        <time>2019-02-15T22:27:10.990Z</time>
      </trkpt>
      <trkpt lat="43.01974" lon="0.1936">
        <ele>1260</ele>
        <time>2019-02-15T22:27:31.990Z</time>
      </trkpt>
      <trkpt lat="43.01979" lon="0.1935">
        <ele>1260</ele>
        <time>2019-02-15T22:27:42.990Z</time>
      </trkpt>
      <trkpt lat="43.01983" lon="0.19339">
        <ele>1261</ele>
        <time>2019-02-15T22:27:52.990Z</time>
      </trkpt>
      <trkpt lat="43.01988" lon="0.19328">
        <ele>1261</ele>
        <time>2019-02-15T22:28:02.990Z</time>
      </trkpt>
      <trkpt lat="43.01993" lon="0.19318">
        <ele>1261</ele>
        <time>2019-02-15T22:28:13.990Z</time>
      </trkpt>
      <trkpt lat="43.01997" lon="0.19307">
        <ele>1262</ele>
        <time>2019-02-15T22:28:22.990Z</time>
      </trkpt>
      <trkpt lat="43.02003" lon="0.19297">
        <ele>1262</ele>
        <time>2019-02-15T22:28:30.990Z</time>
      </trkpt>
      <trkpt lat="43.0201" lon="0.19286">
        <ele>1262</ele>
        <time>2019-02-15T22:28:40.000Z</time>
      </trkpt>
      <trkpt lat="43.02018" lon="0.19279">
        <ele>1262</ele>
        <time>2019-02-15T22:28:47.990Z</time>
      </trkpt>
      <trkpt lat="43.02026" lon="0.19273">
        <ele>1262</ele>
        <time>2019-02-15T22:28:55.000Z</time>
      </trkpt>
      <trkpt lat="43.02035" lon="0.19267">
        <ele>1263</ele>
        <time>2019-02-15T22:29:03.990Z</time>
      </trkpt>
      <trkpt lat="43.02044" lon="0.19261">
        <ele>1264</ele>
        <time>2019-02-15T22:29:13.990Z</time>
      </trkpt>
      <trkpt lat="43.02051" lon="0.19254">
        <ele>1264</ele>
        <time>2019-02-15T22:29:22.000Z</time>
      </trkpt>
      <trkpt lat="43.0206" lon="0.19248">
        <ele>1265</ele>
        <time>2019-02-15T22:29:31.000Z</time>
      </trkpt>
      <trkpt lat="43.02068" lon="0.19241">
        <ele>1268</ele>
        <time>2019-02-15T22:29:42.990Z</time>
      </trkpt>
      <trkpt lat="43.02077" lon="0.19238">
        <ele>1268.3500032</ele>
        <time>2019-02-15T22:29:53.000Z</time>
      </trkpt>
      <trkpt lat="43.02086" lon="0.19237">
        <ele>1272</ele>
        <time>2019-02-15T22:30:10.990Z</time>
      </trkpt>
      <trkpt lat="43.02092" lon="0.19228">
        <ele>1275</ele>
        <time>2019-02-15T22:30:30.990Z</time>
      </trkpt>
      <trkpt lat="43.02091" lon="0.19216">
        <ele>1279</ele>
        <time>2019-02-15T22:30:49.990Z</time>
      </trkpt>
      <trkpt lat="43.02098" lon="0.19207">
        <ele>1281</ele>
        <time>2019-02-15T22:31:24.990Z</time>
      </trkpt>
      <trkpt lat="43.02107" lon="0.19206">
        <ele>1280</ele>
        <time>2019-02-15T22:32:16.990Z</time>
      </trkpt>
      <trkpt lat="43.02116" lon="0.19206">
        <ele>1277</ele>
        <time>2019-02-15T22:32:31.960Z</time>
      </trkpt>
      <trkpt lat="43.02125" lon="0.19205">
        <ele>1274</ele>
        <time>2019-02-15T22:32:52.990Z</time>
      </trkpt>
      <trkpt lat="43.02135" lon="0.19203">
        <ele>1270</ele>
        <time>2019-02-15T22:33:07.990Z</time>
      </trkpt>
      <trkpt lat="43.02143" lon="0.19198">
        <ele>1267</ele>
        <time>2019-02-15T22:33:29.990Z</time>
      </trkpt>
      <trkpt lat="43.02152" lon="0.19199">
        <ele>1263</ele>
        <time>2019-02-15T22:33:56.000Z</time>
      </trkpt>
      <trkpt lat="43.02161" lon="0.19201">
        <ele>1260</ele>
        <time>2019-02-15T22:34:07.990Z</time>
      </trkpt>
      <trkpt lat="43.02169" lon="0.19193">
        <ele>1255.3195919822</ele>
        <time>2019-02-15T22:34:20.990Z</time>
      </trkpt>
      <trkpt lat="43.02175" lon="0.19184">
        <ele>1252</ele>
        <time>2019-02-15T22:34:40.000Z</time>
      </trkpt>
      <trkpt lat="43.02182" lon="0.19176">
        <ele>1247</ele>
        <time>2019-02-15T22:35:05.000Z</time>
      </trkpt>
      <trkpt lat="43.02188" lon="0.19165">
        <ele>1243.675922963</ele>
        <time>2019-02-15T22:35:29.000Z</time>
      </trkpt>
      <trkpt lat="43.02197" lon="0.19163">
        <ele>1239</ele>
        <time>2019-02-15T22:37:42.990Z</time>
      </trkpt>
      <trkpt lat="43.02188" lon="0.19168">
        <ele>1241</ele>
        <time>2019-02-15T22:38:45.000Z</time>
      </trkpt>
      <trkpt lat="43.02198" lon="0.19173">
        <ele>1239</ele>
        <time>2019-02-15T22:39:06.000Z</time>
      </trkpt>
      <trkpt lat="43.02208" lon="0.19173">
        <ele>1235</ele>
        <time>2019-02-15T22:39:24.000Z</time>
      </trkpt>
      <trkpt lat="43.02216" lon="0.19168">
        <ele>1233</ele>
        <time>2019-02-15T22:39:47.000Z</time>
      </trkpt>
      <trkpt lat="43.02226" lon="0.19168">
        <ele>1229.69792</ele>
        <time>2019-02-15T22:40:00.990Z</time>
      </trkpt>
      <trkpt lat="43.02227" lon="0.19181">
        <ele>1225</ele>
        <time>2019-02-15T22:40:24.000Z</time>
      </trkpt>
      <trkpt lat="43.02234" lon="0.19172">
        <ele>1223</ele>
        <time>2019-02-15T22:40:45.020Z</time>
      </trkpt>
      <trkpt lat="43.02242" lon="0.19176">
        <ele>1217</ele>
        <time>2019-02-15T22:41:14.990Z</time>
      </trkpt>
      <trkpt lat="43.02243" lon="0.19162">
        <ele>1213</ele>
        <time>2019-02-15T22:41:48.990Z</time>
      </trkpt>
      <trkpt lat="43.02253" lon="0.1916">
        <ele>1211</ele>
        <time>2019-02-15T22:42:26.000Z</time>
      </trkpt>
      <trkpt lat="43.0226" lon="0.19169">
        <ele>1208</ele>
        <time>2019-02-15T22:42:41.990Z</time>
      </trkpt>
      <trkpt lat="43.02267" lon="0.19161">
        <ele>1204</ele>
        <time>2019-02-15T22:43:05.990Z</time>
      </trkpt>
      <trkpt lat="43.02276" lon="0.19166">
        <ele>1201.9420287166</ele>
        <time>2019-02-15T22:43:24.000Z</time>
      </trkpt>
      <trkpt lat="43.02284" lon="0.1916">
        <ele>1198</ele>
        <time>2019-02-15T22:43:39.990Z</time>
      </trkpt>
      <trkpt lat="43.02285" lon="0.19145">
        <ele>1196</ele>
        <time>2019-02-15T22:43:59.000Z</time>
      </trkpt>
      <trkpt lat="43.02288" lon="0.1916">
        <ele>1194</ele>
        <time>2019-02-15T22:44:07.000Z</time>
      </trkpt>
      <trkpt lat="43.02299" lon="0.19156">
        <ele>1191.6874971429</ele>
        <time>2019-02-15T22:44:22.000Z</time>
      </trkpt>
      <trkpt lat="43.02307" lon="0.19151">
        <ele>1187</ele>
        <time>2019-02-15T22:44:44.990Z</time>
      </trkpt>
      <trkpt lat="43.02317" lon="0.19152">
        <ele>1184</ele>
        <time>2019-02-15T22:45:03.000Z</time>
      </trkpt>
      <trkpt lat="43.02326" lon="0.19153">
        <ele>1183</ele>
        <time>2019-02-15T22:45:13.000Z</time>
      </trkpt>
      <trkpt lat="43.0233" lon="0.1914">
        <ele>1183</ele>
        <time>2019-02-15T22:45:27.000Z</time>
      </trkpt>
      <trkpt lat="43.02334" lon="0.19128">
        <ele>1179</ele>
        <time>2019-02-15T22:45:41.000Z</time>
      </trkpt>
      <trkpt lat="43.02334" lon="0.19116">
        <ele>1179</ele>
        <time>2019-02-15T22:46:04.990Z</time>
      </trkpt>
      <trkpt lat="43.0234" lon="0.19124">
        <ele>1176</ele>
        <time>2019-02-15T22:46:17.000Z</time>
      </trkpt>
      <trkpt lat="43.02349" lon="0.19125">
        <ele>1174.7444390716</ele>
        <time>2019-02-15T22:46:37.990Z</time>
      </trkpt>
      <trkpt lat="43.02354" lon="0.19114">
        <ele>1169</ele>
        <time>2019-02-15T22:47:13.990Z</time>
      </trkpt>
      <trkpt lat="43.02364" lon="0.19108">
        <ele>1168</ele>
        <time>2019-02-15T22:47:30.000Z</time>
      </trkpt>
      <trkpt lat="43.02373" lon="0.19105">
        <ele>1165.7256632156</ele>
        <time>2019-02-15T22:47:43.960Z</time>
      </trkpt>
      <trkpt lat="43.0238" lon="0.19097">
        <ele>1164</ele>
        <time>2019-02-15T22:47:57.000Z</time>
      </trkpt>
      <trkpt lat="43.02388" lon="0.19091">
        <ele>1161.6599936</ele>
        <time>2019-02-15T22:48:13.990Z</time>
      </trkpt>
      <trkpt lat="43.02396" lon="0.19085">
        <ele>1159</ele>
        <time>2019-02-15T22:48:33.000Z</time>
      </trkpt>
      <trkpt lat="43.02403" lon="0.19077">
        <ele>1156</ele>
        <time>2019-02-15T22:48:53.000Z</time>
      </trkpt>
      <trkpt lat="43.02398" lon="0.19066">
        <ele>1154</ele>
        <time>2019-02-15T22:49:11.990Z</time>
      </trkpt>
      <trkpt lat="43.0239" lon="0.19058">
        <ele>1151.0359688381</ele>
        <time>2019-02-15T22:49:29.990Z</time>
      </trkpt>
      <trkpt lat="43.02381" lon="0.19054">
        <ele>1146.7232114286</ele>
        <time>2019-02-15T22:49:56.960Z</time>
      </trkpt>
      <trkpt lat="43.02373" lon="0.19049">
        <ele>1143</ele>
        <time>2019-02-15T22:50:20.990Z</time>
      </trkpt>
      <trkpt lat="43.02364" lon="0.19046">
        <ele>1140</ele>
        <time>2019-02-15T22:50:37.020Z</time>
      </trkpt>
      <trkpt lat="43.02355" lon="0.19039">
        <ele>1137</ele>
        <time>2019-02-15T22:51:09.990Z</time>
      </trkpt>
      <trkpt lat="43.02348" lon="0.1903">
        <ele>1133</ele>
        <time>2019-02-15T22:51:55.000Z</time>
      </trkpt>
      <trkpt lat="43.02354" lon="0.19021">
        <ele>1128</ele>
        <time>2019-02-15T22:52:34.990Z</time>
      </trkpt>
      <trkpt lat="43.02363" lon="0.19019">
        <ele>1126.733331437</ele>
        <time>2019-02-15T22:52:48.990Z</time>
      </trkpt>
      <trkpt lat="43.02372" lon="0.19015">
        <ele>1123</ele>
        <time>2019-02-15T22:53:03.000Z</time>
      </trkpt>
      <trkpt lat="43.0238" lon="0.19009">
        <ele>1121</ele>
        <time>2019-02-15T22:53:15.990Z</time>
      </trkpt>
      <trkpt lat="43.02385" lon="0.18998">
        <ele>1118</ele>
        <time>2019-02-15T22:53:35.990Z</time>
      </trkpt>
      <trkpt lat="43.02394" lon="0.18995">
        <ele>1116</ele>
        <time>2019-02-15T22:54:10.990Z</time>
      </trkpt>
      <trkpt lat="43.02386" lon="0.19001">
        <ele>1116</ele>
        <time>2019-02-15T22:54:46.990Z</time>
      </trkpt>
      <trkpt lat="43.02395" lon="0.18998">
        <ele>1114</ele>
        <time>2019-02-15T22:56:19.990Z</time>
      </trkpt>
      <trkpt lat="43.02402" lon="0.1899">
        <ele>1112</ele>
        <time>2019-02-15T22:56:34.000Z</time>
      </trkpt>
      <trkpt lat="43.02409" lon="0.18981">
        <ele>1109</ele>
        <time>2019-02-15T22:56:50.990Z</time>
      </trkpt>
      <trkpt lat="43.02415" lon="0.18971">
        <ele>1106</ele>
        <time>2019-02-15T22:57:01.990Z</time>
      </trkpt>
      <trkpt lat="43.02421" lon="0.18961">
        <ele>1103</ele>
        <time>2019-02-15T22:57:11.990Z</time>
      </trkpt>
      <trkpt lat="43.02429" lon="0.18952">
        <ele>1100</ele>
        <time>2019-02-15T22:57:21.990Z</time>
      </trkpt>
      <trkpt lat="43.02435" lon="0.18942">
        <ele>1098</ele>
        <time>2019-02-15T22:57:34.990Z</time>
      </trkpt>
      <trkpt lat="43.02442" lon="0.18933">
        <ele>1096</ele>
        <time>2019-02-15T22:57:47.990Z</time>
      </trkpt>
      <trkpt lat="43.0245" lon="0.18926">
        <ele>1092.0074050195</ele>
        <time>2019-02-15T22:58:00.990Z</time>
      </trkpt>
      <trkpt lat="43.02453" lon="0.18914">
        <ele>1090</ele>
        <time>2019-02-15T22:58:12.990Z</time>
      </trkpt>
      <trkpt lat="43.02458" lon="0.18903">
        <ele>1089</ele>
        <time>2019-02-15T22:58:24.990Z</time>
      </trkpt>
      <trkpt lat="43.02463" lon="0.18891">
        <ele>1085</ele>
        <time>2019-02-15T22:58:37.990Z</time>
      </trkpt>
      <trkpt lat="43.02469" lon="0.18881">
        <ele>1082</ele>
        <time>2019-02-15T22:58:55.990Z</time>
      </trkpt>
      <trkpt lat="43.02473" lon="0.18869">
        <ele>1079</ele>
        <time>2019-02-15T22:59:12.990Z</time>
      </trkpt>
      <trkpt lat="43.02479" lon="0.18859">
        <ele>1077</ele>
        <time>2019-02-15T22:59:24.000Z</time>
      </trkpt>
      <trkpt lat="43.02483" lon="0.18848">
        <ele>1074</ele>
        <time>2019-02-15T22:59:36.990Z</time>
      </trkpt>
      <trkpt lat="43.02489" lon="0.18838">
        <ele>1074</ele>
        <time>2019-02-15T23:00:04.000Z</time>
      </trkpt>
      <trkpt lat="43.02494" lon="0.18827">
        <ele>1069.7499927273</ele>
        <time>2019-02-15T23:00:26.990Z</time>
      </trkpt>
      <trkpt lat="43.02499" lon="0.18817">
        <ele>1067</ele>
        <time>2019-02-15T23:00:42.990Z</time>
      </trkpt>
      <trkpt lat="43.02505" lon="0.18807">
        <ele>1065</ele>
        <time>2019-02-15T23:00:57.990Z</time>
      </trkpt>
      <trkpt lat="43.02509" lon="0.18796">
        <ele>1063</ele>
        <time>2019-02-15T23:01:14.000Z</time>
      </trkpt>
      <trkpt lat="43.02517" lon="0.18789">
        <ele>1061</ele>
        <time>2019-02-15T23:01:28.990Z</time>
      </trkpt>
      <trkpt lat="43.02521" lon="0.18778">
        <ele>1060</ele>
        <time>2019-02-15T23:01:43.990Z</time>
      </trkpt>
      <trkpt lat="43.02527" lon="0.18768">
        <ele>1059</ele>
        <time>2019-02-15T23:01:53.000Z</time>
      </trkpt>
      <trkpt lat="43.0253" lon="0.18756">
        <ele>1059</ele>
        <time>2019-02-15T23:02:03.990Z</time>
      </trkpt>
      <trkpt lat="43.02532" lon="0.18743">
        <ele>1057</ele>
        <time>2019-02-15T23:02:14.990Z</time>
      </trkpt>
      <trkpt lat="43.02536" lon="0.18732">
        <ele>1055</ele>
        <time>2019-02-15T23:02:25.990Z</time>
      </trkpt>
      <trkpt lat="43.02538" lon="0.18719">
        <ele>1052</ele>
        <time>2019-02-15T23:02:38.990Z</time>
      </trkpt>
      <trkpt lat="43.02543" lon="0.18709">
        <ele>1051</ele>
        <time>2019-02-15T23:02:53.000Z</time>
      </trkpt>
      <trkpt lat="43.02546" lon="0.18697">
        <ele>1048</ele>
        <time>2019-02-15T23:03:09.000Z</time>
      </trkpt>
      <trkpt lat="43.0255" lon="0.18685">
        <ele>1047</ele>
        <time>2019-02-15T23:03:24.000Z</time>
      </trkpt>
      <trkpt lat="43.02552" lon="0.18673">
        <ele>1043</ele>
        <time>2019-02-15T23:03:43.000Z</time>
      </trkpt>
      <trkpt lat="43.02554" lon="0.18661">
        <ele>1040</ele>
        <time>2019-02-15T23:03:59.000Z</time>
      </trkpt>
      <trkpt lat="43.02558" lon="0.1865">
        <ele>1037.6499968</ele>
        <time>2019-02-15T23:04:12.000Z</time>
      </trkpt>
      <trkpt lat="43.02562" lon="0.18637">
        <ele>1036</ele>
        <time>2019-02-15T23:04:26.990Z</time>
      </trkpt>
      <trkpt lat="43.02566" lon="0.18626">
        <ele>1034</ele>
        <time>2019-02-15T23:04:49.000Z</time>
      </trkpt>
      <trkpt lat="43.02571" lon="0.18614">
        <ele>1032</ele>
        <time>2019-02-15T23:05:00.990Z</time>
      </trkpt>
      <trkpt lat="43.02572" lon="0.18602">
        <ele>1029.6599936</ele>
        <time>2019-02-15T23:05:16.990Z</time>
      </trkpt>
      <trkpt lat="43.02574" lon="0.18589">
        <ele>1027</ele>
        <time>2019-02-15T23:05:31.990Z</time>
      </trkpt>
      <trkpt lat="43.02575" lon="0.18577">
        <ele>1026</ele>
        <time>2019-02-15T23:05:42.990Z</time>
      </trkpt>
      <trkpt lat="43.02576" lon="0.18564">
        <ele>1023</ele>
        <time>2019-02-15T23:05:59.990Z</time>
      </trkpt>
      <trkpt lat="43.02577" lon="0.18551">
        <ele>1022</ele>
        <time>2019-02-15T23:06:14.990Z</time>
      </trkpt>
      <trkpt lat="43.02575" lon="0.18537">
        <ele>1020</ele>
        <time>2019-02-15T23:06:34.000Z</time>
      </trkpt>
      <trkpt lat="43.02573" lon="0.18524">
        <ele>1018</ele>
        <time>2019-02-15T23:06:47.990Z</time>
      </trkpt>
      <trkpt lat="43.02575" lon="0.18511">
        <ele>1015</ele>
        <time>2019-02-15T23:07:05.990Z</time>
      </trkpt>
      <trkpt lat="43.02576" lon="0.18499">
        <ele>1012</ele>
        <time>2019-02-15T23:07:24.990Z</time>
      </trkpt>
      <trkpt lat="43.02577" lon="0.18486">
        <ele>1010</ele>
        <time>2019-02-15T23:08:24.990Z</time>
      </trkpt>
      <trkpt lat="43.0258" lon="0.18474">
        <ele>1007</ele>
        <time>2019-02-15T23:08:36.990Z</time>
      </trkpt>
      <trkpt lat="43.02581" lon="0.1846">
        <ele>1005</ele>
        <time>2019-02-15T23:08:50.990Z</time>
      </trkpt>
      <trkpt lat="43.02581" lon="0.18448">
        <ele>1004</ele>
        <time>2019-02-15T23:09:02.990Z</time>
      </trkpt>
      <trkpt lat="43.02582" lon="0.18435">
        <ele>1002</ele>
        <time>2019-02-15T23:09:14.000Z</time>
      </trkpt>
      <trkpt lat="43.02579" lon="0.18423">
        <ele>1000</ele>
        <time>2019-02-15T23:09:31.990Z</time>
      </trkpt>
      <trkpt lat="43.02576" lon="0.18411">
        <ele>996</ele>
        <time>2019-02-15T23:09:50.990Z</time>
      </trkpt>
      <trkpt lat="43.02578" lon="0.18399">
        <ele>995</ele>
        <time>2019-02-15T23:10:07.990Z</time>
      </trkpt>
      <trkpt lat="43.02576" lon="0.18386">
        <ele>992.66335893341</ele>
        <time>2019-02-15T23:10:21.990Z</time>
      </trkpt>
      <trkpt lat="43.02574" lon="0.18374">
        <ele>990.75862170433</ele>
        <time>2019-02-15T23:10:34.990Z</time>
      </trkpt>
      <trkpt lat="43.02574" lon="0.1836">
        <ele>988</ele>
        <time>2019-02-15T23:10:55.990Z</time>
      </trkpt>
      <trkpt lat="43.02574" lon="0.18347">
        <ele>986</ele>
        <time>2019-02-15T23:11:10.990Z</time>
      </trkpt>
      <trkpt lat="43.02571" lon="0.18333">
        <ele>986</ele>
        <time>2019-02-15T23:11:24.000Z</time>
      </trkpt>
      <trkpt lat="43.02572" lon="0.18319">
        <ele>984</ele>
        <time>2019-02-15T23:11:39.000Z</time>
      </trkpt>
      <trkpt lat="43.02573" lon="0.18307">
        <ele>983</ele>
        <time>2019-02-15T23:11:55.990Z</time>
      </trkpt>
      <trkpt lat="43.02577" lon="0.18295">
        <ele>980</ele>
        <time>2019-02-15T23:12:10.990Z</time>
      </trkpt>
      <trkpt lat="43.02577" lon="0.18282">
        <ele>977</ele>
        <time>2019-02-15T23:12:34.000Z</time>
      </trkpt>
      <trkpt lat="43.02569" lon="0.18274">
        <ele>973</ele>
        <time>2019-02-15T23:12:51.990Z</time>
      </trkpt>
      <trkpt lat="43.02562" lon="0.18267">
        <ele>970</ele>
        <time>2019-02-15T23:13:09.990Z</time>
      </trkpt>
      <trkpt lat="43.02556" lon="0.18258">
        <ele>967.69642285714</ele>
        <time>2019-02-15T23:13:24.990Z</time>
      </trkpt>
      <trkpt lat="43.02553" lon="0.18244">
        <ele>964</ele>
        <time>2019-02-15T23:13:39.000Z</time>
      </trkpt>
      <trkpt lat="43.02547" lon="0.18233">
        <ele>962</ele>
        <time>2019-02-15T23:13:51.000Z</time>
      </trkpt>
      <trkpt lat="43.02542" lon="0.18222">
        <ele>958</ele>
        <time>2019-02-15T23:14:10.000Z</time>
      </trkpt>
      <trkpt lat="43.02536" lon="0.18214">
        <ele>955</ele>
        <time>2019-02-15T23:14:25.000Z</time>
      </trkpt>
      <trkpt lat="43.02544" lon="0.18207">
        <ele>952</ele>
        <time>2019-02-15T23:15:00.990Z</time>
      </trkpt>
      <trkpt lat="43.02551" lon="0.182">
        <ele>952</ele>
        <time>2019-02-15T23:16:35.990Z</time>
      </trkpt>
      <trkpt lat="43.02554" lon="0.18188">
        <ele>947</ele>
        <time>2019-02-15T23:17:52.990Z</time>
      </trkpt>
      <trkpt lat="43.02561" lon="0.18181">
        <ele>945</ele>
        <time>2019-02-15T23:18:02.000Z</time>
      </trkpt>
      <trkpt lat="43.0257" lon="0.18173">
        <ele>944</ele>
        <time>2019-02-15T23:18:08.990Z</time>
      </trkpt>
      <trkpt lat="43.02578" lon="0.18168">
        <ele>942.6599936</ele>
        <time>2019-02-15T23:18:14.990Z</time>
      </trkpt>
      <trkpt lat="43.02587" lon="0.1816">
        <ele>940</ele>
        <time>2019-02-15T23:18:26.000Z</time>
      </trkpt>
      <trkpt lat="43.02595" lon="0.18152">
        <ele>937.02189085405</ele>
        <time>2019-02-15T23:18:37.990Z</time>
      </trkpt>
      <trkpt lat="43.02602" lon="0.18143">
        <ele>934</ele>
        <time>2019-02-15T23:18:54.990Z</time>
      </trkpt>
      <trkpt lat="43.02608" lon="0.1813">
        <ele>932</ele>
        <time>2019-02-15T23:19:09.000Z</time>
      </trkpt>
      <trkpt lat="43.02614" lon="0.1812">
        <ele>932</ele>
        <time>2019-02-15T23:19:18.000Z</time>
      </trkpt>
      <trkpt lat="43.02619" lon="0.1811">
        <ele>928.32292</ele>
        <time>2019-02-15T23:19:28.000Z</time>
      </trkpt>
      <trkpt lat="43.02626" lon="0.18102">
        <ele>926</ele>
        <time>2019-02-15T23:19:50.990Z</time>
      </trkpt>
      <trkpt lat="43.0263" lon="0.18089">
        <ele>922</ele>
        <time>2019-02-15T23:20:01.990Z</time>
      </trkpt>
      <trkpt lat="43.02633" lon="0.18076">
        <ele>920</ele>
        <time>2019-02-15T23:20:14.000Z</time>
      </trkpt>
      <trkpt lat="43.02633" lon="0.18063">
        <ele>917</ele>
        <time>2019-02-15T23:20:27.990Z</time>
      </trkpt>
      <trkpt lat="43.02635" lon="0.18051">
        <ele>916.01470117647</ele>
        <time>2019-02-15T23:20:36.990Z</time>
      </trkpt>
      <trkpt lat="43.02638" lon="0.18039">
        <ele>913</ele>
        <time>2019-02-15T23:20:49.000Z</time>
      </trkpt>
      <trkpt lat="43.02637" lon="0.18026">
        <ele>910</ele>
        <time>2019-02-15T23:21:00.990Z</time>
      </trkpt>
      <trkpt lat="43.02639" lon="0.18014">
        <ele>909</ele>
        <time>2019-02-15T23:21:14.000Z</time>
      </trkpt>
      <trkpt lat="43.02648" lon="0.18007">
        <ele>904.67924118194</ele>
        <time>2019-02-15T23:21:27.990Z</time>
      </trkpt>
      <trkpt lat="43.02653" lon="0.17996">
        <ele>902</ele>
        <time>2019-02-15T23:21:35.990Z</time>
      </trkpt>
      <trkpt lat="43.0266" lon="0.17988">
        <ele>900</ele>
        <time>2019-02-15T23:21:46.990Z</time>
      </trkpt>
      <trkpt lat="43.02665" lon="0.17978">
        <ele>898</ele>
        <time>2019-02-15T23:21:56.990Z</time>
      </trkpt>
      <trkpt lat="43.02672" lon="0.17968">
        <ele>894.6599936</ele>
        <time>2019-02-15T23:22:07.990Z</time>
      </trkpt>
      <trkpt lat="43.02678" lon="0.17957">
        <ele>891</ele>
        <time>2019-02-15T23:22:19.000Z</time>
      </trkpt>
      <trkpt lat="43.02674" lon="0.17969">
        <ele>891</ele>
        <time>2019-02-15T23:22:39.990Z</time>
      </trkpt>
      <trkpt lat="43.02677" lon="0.17957">
        <ele>891</ele>
        <time>2019-02-15T23:23:12.000Z</time>
      </trkpt>
      <trkpt lat="43.02686" lon="0.17952">
        <ele>889</ele>
        <time>2019-02-15T23:23:19.990Z</time>
      </trkpt>
      <trkpt lat="43.02695" lon="0.17945">
        <ele>886</ele>
        <time>2019-02-15T23:23:30.990Z</time>
      </trkpt>
      <trkpt lat="43.02705" lon="0.17949">
        <ele>883</ele>
        <time>2019-02-15T23:23:46.000Z</time>
      </trkpt>
      <trkpt lat="43.02712" lon="0.17957">
        <ele>881</ele>
        <time>2019-02-15T23:23:55.990Z</time>
      </trkpt>
      <trkpt lat="43.02708" lon="0.17945">
        <ele>878</ele>
        <time>2019-02-15T23:24:12.000Z</time>
      </trkpt>
      <trkpt lat="43.02703" lon="0.17933">
        <ele>877</ele>
        <time>2019-02-15T23:24:18.990Z</time>
      </trkpt>
      <trkpt lat="43.02699" lon="0.17922">
        <ele>873</ele>
        <time>2019-02-15T23:24:32.000Z</time>
      </trkpt>
      <trkpt lat="43.02693" lon="0.17912">
        <ele>871.6499968</ele>
        <time>2019-02-15T23:24:40.000Z</time>
      </trkpt>
      <trkpt lat="43.02685" lon="0.17906">
        <ele>869</ele>
        <time>2019-02-15T23:24:49.990Z</time>
      </trkpt>
      <trkpt lat="43.02678" lon="0.17896">
        <ele>866</ele>
        <time>2019-02-15T23:25:02.000Z</time>
      </trkpt>
      <trkpt lat="43.02674" lon="0.17885">
        <ele>864</ele>
        <time>2019-02-15T23:25:15.000Z</time>
      </trkpt>
      <trkpt lat="43.02665" lon="0.17876">
        <ele>860</ele>
        <time>2019-02-15T23:25:29.000Z</time>
      </trkpt>
      <trkpt lat="43.02658" lon="0.17869">
        <ele>857</ele>
        <time>2019-02-15T23:25:36.990Z</time>
      </trkpt>
      <trkpt lat="43.02649" lon="0.17865">
        <ele>855.68468271082</ele>
        <time>2019-02-15T23:25:46.000Z</time>
      </trkpt>
      <trkpt lat="43.02638" lon="0.17865">
        <ele>853</ele>
        <time>2019-02-15T23:25:56.990Z</time>
      </trkpt>
      <trkpt lat="43.02629" lon="0.17862">
        <ele>849</ele>
        <time>2019-02-15T23:26:06.990Z</time>
      </trkpt>
      <trkpt lat="43.0262" lon="0.17859">
        <ele>847</ele>
        <time>2019-02-15T23:26:18.000Z</time>
      </trkpt>
      <trkpt lat="43.02611" lon="0.1786">
        <ele>844</ele>
        <time>2019-02-15T23:26:31.990Z</time>
      </trkpt>
      <trkpt lat="43.02602" lon="0.17864">
        <ele>841</ele>
        <time>2019-02-15T23:26:43.990Z</time>
      </trkpt>
      <trkpt lat="43.02592" lon="0.17862">
        <ele>839</ele>
        <time>2019-02-15T23:26:54.990Z</time>
      </trkpt>
      <trkpt lat="43.02583" lon="0.17862">
        <ele>836</ele>
        <time>2019-02-15T23:27:04.990Z</time>
      </trkpt>
      <trkpt lat="43.02574" lon="0.17867">
        <ele>834.95651689979</ele>
        <time>2019-02-15T23:27:15.990Z</time>
      </trkpt>
      <trkpt lat="43.02576" lon="0.17855">
        <ele>829</ele>
        <time>2019-02-15T23:27:40.990Z</time>
      </trkpt>
      <trkpt lat="43.02585" lon="0.17848">
        <ele>827</ele>
        <time>2019-02-15T23:27:49.990Z</time>
      </trkpt>
      <trkpt lat="43.02592" lon="0.17837">
        <ele>826</ele>
        <time>2019-02-15T23:27:56.990Z</time>
      </trkpt>
      <trkpt lat="43.026" lon="0.1783">
        <ele>825</ele>
        <time>2019-02-15T23:28:05.990Z</time>
      </trkpt>
      <trkpt lat="43.02606" lon="0.1782">
        <ele>822.94202871666</ele>
        <time>2019-02-15T23:28:18.000Z</time>
      </trkpt>
      <trkpt lat="43.02615" lon="0.17814">
        <ele>818</ele>
        <time>2019-02-15T23:28:31.990Z</time>
      </trkpt>
      <trkpt lat="43.02623" lon="0.17808">
        <ele>816.69911193675</ele>
        <time>2019-02-15T23:28:41.990Z</time>
      </trkpt>
      <trkpt lat="43.0263" lon="0.17799">
        <ele>816</ele>
        <time>2019-02-15T23:28:48.990Z</time>
      </trkpt>
      <trkpt lat="43.02638" lon="0.17793">
        <ele>814.74444270619</ele>
        <time>2019-02-15T23:28:56.990Z</time>
      </trkpt>
      <trkpt lat="43.02646" lon="0.17787">
        <ele>812</ele>
        <time>2019-02-15T23:29:09.990Z</time>
      </trkpt>
      <trkpt lat="43.02651" lon="0.17777">
        <ele>810</ele>
        <time>2019-02-15T23:29:21.990Z</time>
      </trkpt>
      <trkpt lat="43.0266" lon="0.17771">
        <ele>808</ele>
        <time>2019-02-15T23:29:32.000Z</time>
      </trkpt>
      <trkpt lat="43.02668" lon="0.17766">
        <ele>807</ele>
        <time>2019-02-15T23:29:40.990Z</time>
      </trkpt>
      <trkpt lat="43.02678" lon="0.17763">
        <ele>804.68181712397</ele>
        <time>2019-02-15T23:29:59.000Z</time>
      </trkpt>
      <trkpt lat="43.02686" lon="0.17757">
        <ele>803</ele>
        <time>2019-02-15T23:30:05.000Z</time>
      </trkpt>
      <trkpt lat="43.02695" lon="0.17749">
        <ele>802</ele>
        <time>2019-02-15T23:30:15.000Z</time>
      </trkpt>
      <trkpt lat="43.02704" lon="0.17753">
        <ele>800</ele>
        <time>2019-02-15T23:30:25.990Z</time>
      </trkpt>
      <trkpt lat="43.02713" lon="0.17757">
        <ele>798</ele>
        <time>2019-02-15T23:30:36.990Z</time>
      </trkpt>
      <trkpt lat="43.02722" lon="0.17759">
        <ele>796.6599936</ele>
        <time>2019-02-15T23:30:44.990Z</time>
      </trkpt>
      <trkpt lat="43.02732" lon="0.1776">
        <ele>795</ele>
        <time>2019-02-15T23:31:02.000Z</time>
      </trkpt>
      <trkpt lat="43.02745" lon="0.17759">
        <ele>794</ele>
        <time>2019-02-15T23:31:09.000Z</time>
      </trkpt>
      <trkpt lat="43.02754" lon="0.17762">
        <ele>793</ele>
        <time>2019-02-15T23:31:16.000Z</time>
      </trkpt>
      <trkpt lat="43.02764" lon="0.17764">
        <ele>790</ele>
        <time>2019-02-15T23:31:36.000Z</time>
      </trkpt>
      <trkpt lat="43.02768" lon="0.17753">
        <ele>789</ele>
        <time>2019-02-15T23:31:49.000Z</time>
      </trkpt>
      <trkpt lat="43.0277" lon="0.17741">
        <ele>788</ele>
        <time>2019-02-15T23:31:57.000Z</time>
      </trkpt>
      <trkpt lat="43.02777" lon="0.17729">
        <ele>786</ele>
        <time>2019-02-15T23:32:10.990Z</time>
      </trkpt>
      <trkpt lat="43.02781" lon="0.17717">
        <ele>786</ele>
        <time>2019-02-15T23:32:20.990Z</time>
      </trkpt>
      <trkpt lat="43.02787" lon="0.17708">
        <ele>786</ele>
        <time>2019-02-15T23:32:30.990Z</time>
      </trkpt>
      <trkpt lat="43.02796" lon="0.17702">
        <ele>785</ele>
        <time>2019-02-15T23:32:46.990Z</time>
      </trkpt>
      <trkpt lat="43.02805" lon="0.17699">
        <ele>785</ele>
        <time>2019-02-15T23:32:53.000Z</time>
      </trkpt>
      <trkpt lat="43.0281" lon="0.17688">
        <ele>783.69368881099</ele>
        <time>2019-02-15T23:33:02.990Z</time>
      </trkpt>
      <trkpt lat="43.028" lon="0.17684">
        <ele>782</ele>
        <time>2019-02-15T23:33:14.990Z</time>
      </trkpt>
      <trkpt lat="43.02791" lon="0.1769">
        <ele>780</ele>
        <time>2019-02-15T23:33:23.990Z</time>
      </trkpt>
      <trkpt lat="43.02782" lon="0.17694">
        <ele>779</ele>
        <time>2019-02-15T23:33:32.990Z</time>
      </trkpt>
      <trkpt lat="43.02773" lon="0.177">
        <ele>777</ele>
        <time>2019-02-15T23:33:45.000Z</time>
      </trkpt>
      <trkpt lat="43.02764" lon="0.17704">
        <ele>777</ele>
        <time>2019-02-15T23:33:56.990Z</time>
      </trkpt>
      <trkpt lat="43.02756" lon="0.17712">
        <ele>775</ele>
        <time>2019-02-15T23:34:07.000Z</time>
      </trkpt>
      <trkpt lat="43.0275" lon="0.17721">
        <ele>773</ele>
        <time>2019-02-15T23:34:20.990Z</time>
      </trkpt>
      <trkpt lat="43.0274" lon="0.17718">
        <ele>771</ele>
        <time>2019-02-15T23:34:35.990Z</time>
      </trkpt>
      <trkpt lat="43.02735" lon="0.17706">
        <ele>769</ele>
        <time>2019-02-15T23:34:49.000Z</time>
      </trkpt>
      <trkpt lat="43.02729" lon="0.17696">
        <ele>767.02898537282</ele>
        <time>2019-02-15T23:35:08.990Z</time>
      </trkpt>
      <trkpt lat="43.02722" lon="0.17688">
        <ele>765</ele>
        <time>2019-02-15T23:35:16.000Z</time>
      </trkpt>
      <trkpt lat="43.02714" lon="0.1768">
        <ele>764</ele>
        <time>2019-02-15T23:35:28.000Z</time>
      </trkpt>
      <trkpt lat="43.02707" lon="0.17671">
        <ele>762</ele>
        <time>2019-02-15T23:35:39.970Z</time>
      </trkpt>
      <trkpt lat="43.02698" lon="0.17666">
        <ele>760</ele>
        <time>2019-02-15T23:35:52.000Z</time>
      </trkpt>
      <trkpt lat="43.02689" lon="0.17667">
        <ele>759</ele>
        <time>2019-02-15T23:36:00.000Z</time>
      </trkpt>
      <trkpt lat="43.02681" lon="0.17663">
        <ele>758</ele>
        <time>2019-02-15T23:36:08.990Z</time>
      </trkpt>
      <trkpt lat="43.02671" lon="0.17664">
        <ele>756</ele>
        <time>2019-02-15T23:36:23.000Z</time>
      </trkpt>
      <trkpt lat="43.02662" lon="0.17664">
        <ele>754.73333143702</ele>
        <time>2019-02-15T23:36:31.990Z</time>
      </trkpt>
      <trkpt lat="43.02653" lon="0.17667">
        <ele>753</ele>
        <time>2019-02-15T23:36:43.000Z</time>
      </trkpt>
      <trkpt lat="43.02643" lon="0.17669">
        <ele>751</ele>
        <time>2019-02-15T23:36:56.990Z</time>
      </trkpt>
      <trkpt lat="43.02634" lon="0.17667">
        <ele>749</ele>
        <time>2019-02-15T23:37:05.990Z</time>
      </trkpt>
      <trkpt lat="43.02624" lon="0.17665">
        <ele>748</ele>
        <time>2019-02-15T23:37:14.990Z</time>
      </trkpt>
      <trkpt lat="43.02615" lon="0.17663">
        <ele>748</ele>
        <time>2019-02-15T23:37:23.990Z</time>
      </trkpt>
      <trkpt lat="43.02606" lon="0.17664">
        <ele>745.74999272727</ele>
        <time>2019-02-15T23:37:34.990Z</time>
      </trkpt>
      <trkpt lat="43.02596" lon="0.17664">
        <ele>745</ele>
        <time>2019-02-15T23:37:45.990Z</time>
      </trkpt>
      <trkpt lat="43.02587" lon="0.17664">
        <ele>742</ele>
        <time>2019-02-15T23:37:55.990Z</time>
      </trkpt>
      <trkpt lat="43.02577" lon="0.17666">
        <ele>740.69642285714</ele>
        <time>2019-02-15T23:38:06.990Z</time>
      </trkpt>
      <trkpt lat="43.02568" lon="0.17665">
        <ele>740</ele>
        <time>2019-02-15T23:38:15.990Z</time>
      </trkpt>
      <trkpt lat="43.02558" lon="0.17665">
        <ele>739.05594393076</ele>
        <time>2019-02-15T23:38:23.000Z</time>
      </trkpt>
      <trkpt lat="43.02549" lon="0.17669">
        <ele>738</ele>
        <time>2019-02-15T23:38:33.990Z</time>
      </trkpt>
      <trkpt lat="43.0254" lon="0.17671">
        <ele>735.06293468434</ele>
        <time>2019-02-15T23:38:45.990Z</time>
      </trkpt>
      <trkpt lat="43.0253" lon="0.1767">
        <ele>734</ele>
        <time>2019-02-15T23:38:55.990Z</time>
      </trkpt>
      <trkpt lat="43.02521" lon="0.17668">
        <ele>733</ele>
        <time>2019-02-15T23:39:05.990Z</time>
      </trkpt>
      <trkpt lat="43.02511" lon="0.17669">
        <ele>731</ele>
        <time>2019-02-15T23:39:18.000Z</time>
      </trkpt>
      <trkpt lat="43.02502" lon="0.1767">
        <ele>730</ele>
        <time>2019-02-15T23:39:25.990Z</time>
      </trkpt>
      <trkpt lat="43.02492" lon="0.17673">
        <ele>728</ele>
        <time>2019-02-15T23:39:35.990Z</time>
      </trkpt>
      <trkpt lat="43.02483" lon="0.17674">
        <ele>727</ele>
        <time>2019-02-15T23:39:44.990Z</time>
      </trkpt>
      <trkpt lat="43.02474" lon="0.17676">
        <ele>726</ele>
        <time>2019-02-15T23:39:54.990Z</time>
      </trkpt>
      <trkpt lat="43.02464" lon="0.17679">
        <ele>724</ele>
        <time>2019-02-15T23:40:08.000Z</time>
      </trkpt>
      <trkpt lat="43.02455" lon="0.17683">
        <ele>722</ele>
        <time>2019-02-15T23:40:18.990Z</time>
      </trkpt>
      <trkpt lat="43.02449" lon="0.17692">
        <ele>721</ele>
        <time>2019-02-15T23:40:28.990Z</time>
      </trkpt>
      <trkpt lat="43.02441" lon="0.17698">
        <ele>720</ele>
        <time>2019-02-15T23:40:38.000Z</time>
      </trkpt>
      <trkpt lat="43.02431" lon="0.17699">
        <ele>718</ele>
        <time>2019-02-15T23:40:48.990Z</time>
      </trkpt>
      <trkpt lat="43.02422" lon="0.17696">
        <ele>716.68</ele>
        <time>2019-02-15T23:40:57.970Z</time>
      </trkpt>
      <trkpt lat="43.02412" lon="0.17695">
        <ele>716</ele>
        <time>2019-02-15T23:41:09.990Z</time>
      </trkpt>
      <trkpt lat="43.02402" lon="0.17695">
        <ele>714</ele>
        <time>2019-02-15T23:41:20.990Z</time>
      </trkpt>
      <trkpt lat="43.02393" lon="0.17694">
        <ele>713</ele>
        <time>2019-02-15T23:41:29.990Z</time>
      </trkpt>
      <trkpt lat="43.02383" lon="0.17692">
        <ele>711</ele>
        <time>2019-02-15T23:41:40.990Z</time>
      </trkpt>
      <trkpt lat="43.02374" lon="0.1769">
        <ele>711</ele>
        <time>2019-02-15T23:41:50.990Z</time>
      </trkpt>
      <trkpt lat="43.02365" lon="0.1769">
        <ele>708</ele>
        <time>2019-02-15T23:42:00.990Z</time>
      </trkpt>
      <trkpt lat="43.02355" lon="0.17691">
        <ele>708</ele>
        <time>2019-02-15T23:42:11.990Z</time>
      </trkpt>
      <trkpt lat="43.02345" lon="0.17691">
        <ele>705</ele>
        <time>2019-02-15T23:42:28.000Z</time>
      </trkpt>
      <trkpt lat="43.02335" lon="0.17692">
        <ele>704</ele>
        <time>2019-02-15T23:42:38.000Z</time>
      </trkpt>
      <trkpt lat="43.02325" lon="0.17693">
        <ele>703</ele>
        <time>2019-02-15T23:42:48.000Z</time>
      </trkpt>
      <trkpt lat="43.02316" lon="0.17694">
        <ele>701.67289518386</ele>
        <time>2019-02-15T23:42:58.000Z</time>
      </trkpt>
      <trkpt lat="43.02306" lon="0.17695">
        <ele>700</ele>
        <time>2019-02-15T23:43:06.990Z</time>
      </trkpt>
      <trkpt lat="43.02297" lon="0.17695">
        <ele>698</ele>
        <time>2019-02-15T23:43:16.990Z</time>
      </trkpt>
      <trkpt lat="43.02288" lon="0.17697">
        <ele>697</ele>
        <time>2019-02-15T23:43:28.000Z</time>
      </trkpt>
      <trkpt lat="43.02278" lon="0.17698">
        <ele>696</ele>
        <time>2019-02-15T23:43:38.990Z</time>
      </trkpt>
      <trkpt lat="43.02269" lon="0.17698">
        <ele>694</ele>
        <time>2019-02-15T23:43:49.990Z</time>
      </trkpt>
      <trkpt lat="43.02259" lon="0.177">
        <ele>692</ele>
        <time>2019-02-15T23:43:58.990Z</time>
      </trkpt>
      <trkpt lat="43.0225" lon="0.17701">
        <ele>691</ele>
        <time>2019-02-15T23:44:08.990Z</time>
      </trkpt>
      <trkpt lat="43.02241" lon="0.17703">
        <ele>690</ele>
        <time>2019-02-15T23:44:18.990Z</time>
      </trkpt>
      <trkpt lat="43.02231" lon="0.17703">
        <ele>689</ele>
        <time>2019-02-15T23:44:28.990Z</time>
      </trkpt>
      <trkpt lat="43.02221" lon="0.17702">
        <ele>687</ele>
        <time>2019-02-15T23:44:38.990Z</time>
      </trkpt>
      <trkpt lat="43.02212" lon="0.17704">
        <ele>685</ele>
        <time>2019-02-15T23:44:50.990Z</time>
      </trkpt>
      <trkpt lat="43.02204" lon="0.17707">
        <ele>686</ele>
        <time>2019-02-15T23:45:00.990Z</time>
      </trkpt>
      <trkpt lat="43.02195" lon="0.17711">
        <ele>685</ele>
        <time>2019-02-15T23:45:10.990Z</time>
      </trkpt>
      <trkpt lat="43.02186" lon="0.17715">
        <ele>684</ele>
        <time>2019-02-15T23:45:21.990Z</time>
      </trkpt>
      <trkpt lat="43.02176" lon="0.17718">
        <ele>683</ele>
        <time>2019-02-15T23:49:23.000Z</time>
      </trkpt>
      <trkpt lat="43.02167" lon="0.17717">
        <ele>683</ele>
        <time>2019-02-15T23:49:33.000Z</time>
      </trkpt>
      <trkpt lat="43.02157" lon="0.17716">
        <ele>683</ele>
        <time>2019-02-15T23:49:41.990Z</time>
      </trkpt>
      <trkpt lat="43.02148" lon="0.17716">
        <ele>683</ele>
        <time>2019-02-15T23:49:49.990Z</time>
      </trkpt>
      <trkpt lat="43.02139" lon="0.17717">
        <ele>683</ele>
        <time>2019-02-15T23:49:58.000Z</time>
      </trkpt>
      <trkpt lat="43.02129" lon="0.17717">
        <ele>682</ele>
        <time>2019-02-15T23:50:06.990Z</time>
      </trkpt>
      <trkpt lat="43.0212" lon="0.1772">
        <ele>682</ele>
        <time>2019-02-15T23:50:16.990Z</time>
      </trkpt>
      <trkpt lat="43.0211" lon="0.17723">
        <ele>680.69026528624</ele>
        <time>2019-02-15T23:50:28.000Z</time>
      </trkpt>
      <trkpt lat="43.02102" lon="0.17729">
        <ele>681</ele>
        <time>2019-02-15T23:50:36.990Z</time>
      </trkpt>
      <trkpt lat="43.02094" lon="0.17737">
        <ele>678.63366537399</ele>
        <time>2019-02-15T23:50:46.020Z</time>
      </trkpt>
      <trkpt lat="43.02087" lon="0.17744">
        <ele>678</ele>
        <time>2019-02-15T23:50:54.990Z</time>
      </trkpt>
      <trkpt lat="43.02078" lon="0.1775">
        <ele>676</ele>
        <time>2019-02-15T23:51:03.990Z</time>
      </trkpt>
      <trkpt lat="43.02074" lon="0.17763">
        <ele>674</ele>
        <time>2019-02-15T23:51:12.000Z</time>
      </trkpt>
      <trkpt lat="43.02068" lon="0.17775">
        <ele>673</ele>
        <time>2019-02-15T23:51:18.990Z</time>
      </trkpt>
      <trkpt lat="43.02063" lon="0.17785">
        <ele>671</ele>
        <time>2019-02-15T23:51:28.990Z</time>
      </trkpt>
      <trkpt lat="43.02055" lon="0.17792">
        <ele>670</ele>
        <time>2019-02-15T23:51:41.990Z</time>
      </trkpt>
      <trkpt lat="43.02046" lon="0.17796">
        <ele>668</ele>
        <time>2019-02-15T23:51:51.990Z</time>
      </trkpt>
      <trkpt lat="43.02038" lon="0.17805">
        <ele>666</ele>
        <time>2019-02-15T23:52:00.990Z</time>
      </trkpt>
      <trkpt lat="43.02029" lon="0.1781">
        <ele>664.04963869421</ele>
        <time>2019-02-15T23:52:08.990Z</time>
      </trkpt>
      <trkpt lat="43.02021" lon="0.17815">
        <ele>664</ele>
        <time>2019-02-15T23:52:16.990Z</time>
      </trkpt>
      <trkpt lat="43.02012" lon="0.17819">
        <ele>662</ele>
        <time>2019-02-15T23:52:25.000Z</time>
      </trkpt>
      <trkpt lat="43.02003" lon="0.17823">
        <ele>660</ele>
        <time>2019-02-15T23:52:33.990Z</time>
      </trkpt>
      <trkpt lat="43.01994" lon="0.17828">
        <ele>658</ele>
        <time>2019-02-15T23:52:43.990Z</time>
      </trkpt>
      <trkpt lat="43.01985" lon="0.17833">
        <ele>657</ele>
        <time>2019-02-15T23:52:52.990Z</time>
      </trkpt>
      <trkpt lat="43.01977" lon="0.17838">
        <ele>655</ele>
        <time>2019-02-15T23:53:01.990Z</time>
      </trkpt>
      <trkpt lat="43.01968" lon="0.17843">
        <ele>654</ele>
        <time>2019-02-15T23:53:10.000Z</time>
      </trkpt>
      <trkpt lat="43.01958" lon="0.17843">
        <ele>653</ele>
        <time>2019-02-15T23:53:17.990Z</time>
      </trkpt>
      <trkpt lat="43.0195" lon="0.17837">
        <ele>653</ele>
        <time>2019-02-15T23:53:35.990Z</time>
      </trkpt>
      <trkpt lat="43.01945" lon="0.17827">
        <ele>653</ele>
        <time>2019-02-15T23:53:43.990Z</time>
      </trkpt>
      <trkpt lat="43.01937" lon="0.1782">
        <ele>653</ele>
        <time>2019-02-15T23:53:51.990Z</time>
      </trkpt>
      <trkpt lat="43.01928" lon="0.17814">
        <ele>654</ele>
        <time>2019-02-15T23:53:58.990Z</time>
      </trkpt>
      <trkpt lat="43.01918" lon="0.17811">
        <ele>655</ele>
        <time>2019-02-15T23:54:08.990Z</time>
      </trkpt>
      <trkpt lat="43.01909" lon="0.17806">
        <ele>656</ele>
        <time>2019-02-15T23:54:16.990Z</time>
      </trkpt>
      <trkpt lat="43.01899" lon="0.17804">
        <ele>657</ele>
        <time>2019-02-15T23:54:25.000Z</time>
      </trkpt>
      <trkpt lat="43.0189" lon="0.178">
        <ele>658</ele>
        <time>2019-02-15T23:54:32.990Z</time>
      </trkpt>
      <trkpt lat="43.0188" lon="0.17797">
        <ele>659</ele>
        <time>2019-02-15T23:54:43.000Z</time>
      </trkpt>
      <trkpt lat="43.01871" lon="0.17792">
        <ele>659</ele>
        <time>2019-02-15T23:54:51.000Z</time>
      </trkpt>
      <trkpt lat="43.01862" lon="0.17788">
        <ele>659</ele>
        <time>2019-02-15T23:55:01.000Z</time>
      </trkpt>
      <trkpt lat="43.01853" lon="0.17792">
        <ele>659</ele>
        <time>2019-02-15T23:55:09.000Z</time>
      </trkpt>
      <trkpt lat="43.01844" lon="0.17796">
        <ele>660</ele>
        <time>2019-02-15T23:55:16.000Z</time>
      </trkpt>
      <trkpt lat="43.01835" lon="0.17802">
        <ele>660</ele>
        <time>2019-02-15T23:55:25.000Z</time>
      </trkpt>
      <trkpt lat="43.01829" lon="0.1781">
        <ele>660</ele>
        <time>2019-02-15T23:55:34.000Z</time>
      </trkpt>
      <trkpt lat="43.01827" lon="0.17823">
        <ele>660</ele>
        <time>2019-02-15T23:55:43.000Z</time>
      </trkpt>
      <trkpt lat="43.0182" lon="0.17831">
        <ele>660</ele>
        <time>2019-02-15T23:55:51.000Z</time>
      </trkpt>
      <trkpt lat="43.01822" lon="0.17831">
        <ele>660</ele>
        <time>2019-02-15T23:57:37.000Z</time>
      </trkpt>
    </trkseg>
  </trk>
</gpx>